<?xml version="1.0" encoding="UTF-8" standalone="no" ?>
<gpx xmlns="http://www.topografix.com/GPX/1/1" xmlns:xsi="http://www.w3.org/2001/XMLSchema-instance" xsi:schemaLocation="http://www.topografix.com/GPX/1/1 http://www.topografix.com/GPX/1/1/gpx.xsd" version="1.1" creator="VisuGPX - https://www.visugpx.com">
  <metadata>
    <name>Saint Liguaire (Buffevent) 7km</name>
  </metadata>
  <wpt lat="46.34566" lon="-0.51403">
    <ele>42</ele>
  </wpt>
  <wpt lat="46.34564" lon="-0.53351">
    <ele>51.3</ele>
  </wpt>
  <wpt lat="46.33732" lon="-0.52052">
    <ele>32</ele>
  </wpt>
  <wpt lat="46.33865" lon="-0.50912">
    <ele>28.7</ele>
  </wpt>
  <trk>
    <name><![CDATA[Saint Liguaire (Buffevent) 7km_1]]></name>
    <trkseg>
      <trkpt lat="46.3424" lon="-0.5117">
        <ele>26.1</ele>
        <time>2013-12-19T14:09:18Z</time>
      </trkpt>
      <trkpt lat="46.34241" lon="-0.51171">
        <ele>26.1</ele>
        <time>2013-12-19T14:09:23Z</time>
      </trkpt>
      <trkpt lat="46.34241" lon="-0.5117">
        <ele>26.1</ele>
        <time>2013-12-19T14:09:28Z</time>
      </trkpt>
      <trkpt lat="46.34242" lon="-0.5117">
        <ele>26.1</ele>
        <time>2013-12-19T14:09:38Z</time>
      </trkpt>
      <trkpt lat="46.34245" lon="-0.5117">
        <ele>26.1</ele>
        <time>2013-12-19T14:09:43Z</time>
      </trkpt>
      <trkpt lat="46.34245" lon="-0.5117">
        <ele>26.1</ele>
        <time>2013-12-19T14:09:53Z</time>
      </trkpt>
      <trkpt lat="46.34246" lon="-0.51171">
        <ele>26.1</ele>
        <time>2013-12-19T14:09:58Z</time>
      </trkpt>
      <trkpt lat="46.34247" lon="-0.51172">
        <ele>25.323374</ele>
        <time>2013-12-19T14:10:03Z</time>
      </trkpt>
      <trkpt lat="46.34247" lon="-0.51173">
        <ele>25.323374</ele>
        <time>2013-12-19T14:10:08Z</time>
      </trkpt>
      <trkpt lat="46.34249" lon="-0.51172">
        <ele>25.323374</ele>
        <time>2013-12-19T14:10:18Z</time>
      </trkpt>
      <trkpt lat="46.34253" lon="-0.51173">
        <ele>25.323374</ele>
        <time>2013-12-19T14:10:23Z</time>
      </trkpt>
      <trkpt lat="46.34257" lon="-0.51175">
        <ele>24.751484</ele>
        <time>2013-12-19T14:10:28Z</time>
      </trkpt>
      <trkpt lat="46.34263" lon="-0.51176">
        <ele>24.751484</ele>
        <time>2013-12-19T14:10:33Z</time>
      </trkpt>
      <trkpt lat="46.34265" lon="-0.51176">
        <ele>24.751484</ele>
        <time>2013-12-19T14:10:38Z</time>
      </trkpt>
      <trkpt lat="46.34265" lon="-0.51176">
        <ele>24.751484</ele>
        <time>2013-12-19T14:10:43Z</time>
      </trkpt>
      <trkpt lat="46.34271" lon="-0.5118">
        <ele>24.641062</ele>
        <time>2013-12-19T14:10:48Z</time>
      </trkpt>
      <trkpt lat="46.34276" lon="-0.5118">
        <ele>24.641062</ele>
        <time>2013-12-19T14:10:53Z</time>
      </trkpt>
      <trkpt lat="46.3428" lon="-0.51181">
        <ele>24.565508</ele>
        <time>2013-12-19T14:10:58Z</time>
      </trkpt>
      <trkpt lat="46.34284" lon="-0.51181">
        <ele>24.565508</ele>
        <time>2013-12-19T14:11:03Z</time>
      </trkpt>
      <trkpt lat="46.3429" lon="-0.51183">
        <ele>24.231998</ele>
        <time>2013-12-19T14:11:08Z</time>
      </trkpt>
      <trkpt lat="46.34295" lon="-0.51184">
        <ele>24.231998</ele>
        <time>2013-12-19T14:11:13Z</time>
      </trkpt>
      <trkpt lat="46.34302" lon="-0.51184">
        <ele>23.60822</ele>
        <time>2013-12-19T14:11:18Z</time>
      </trkpt>
      <trkpt lat="46.34307" lon="-0.51184">
        <ele>23.60822</ele>
        <time>2013-12-19T14:11:23Z</time>
      </trkpt>
      <trkpt lat="46.34309" lon="-0.51184">
        <ele>23.60822</ele>
        <time>2013-12-19T14:11:28Z</time>
      </trkpt>
      <trkpt lat="46.34313" lon="-0.51184">
        <ele>23.014029</ele>
        <time>2013-12-19T14:11:33Z</time>
      </trkpt>
      <trkpt lat="46.3432" lon="-0.51184">
        <ele>23.014029</ele>
        <time>2013-12-19T14:11:38Z</time>
      </trkpt>
      <trkpt lat="46.34326" lon="-0.51184">
        <ele>22.614742</ele>
        <time>2013-12-19T14:11:43Z</time>
      </trkpt>
      <trkpt lat="46.3433" lon="-0.51183">
        <ele>22.614742</ele>
        <time>2013-12-19T14:11:48Z</time>
      </trkpt>
      <trkpt lat="46.34335" lon="-0.51182">
        <ele>22.210047</ele>
        <time>2013-12-19T14:11:53Z</time>
      </trkpt>
      <trkpt lat="46.34341" lon="-0.51181">
        <ele>22.210047</ele>
        <time>2013-12-19T14:11:58Z</time>
      </trkpt>
      <trkpt lat="46.34345" lon="-0.5118">
        <ele>21.95896</ele>
        <time>2013-12-19T14:12:03Z</time>
      </trkpt>
      <trkpt lat="46.34348" lon="-0.5118">
        <ele>21.95896</ele>
        <time>2013-12-19T14:12:08Z</time>
      </trkpt>
      <trkpt lat="46.34351" lon="-0.5118">
        <ele>21.95896</ele>
        <time>2013-12-19T14:12:13Z</time>
      </trkpt>
      <trkpt lat="46.34358" lon="-0.5118">
        <ele>21.512077</ele>
        <time>2013-12-19T14:12:18Z</time>
      </trkpt>
      <trkpt lat="46.34365" lon="-0.51179">
        <ele>21.512077</ele>
        <time>2013-12-19T14:12:23Z</time>
      </trkpt>
      <trkpt lat="46.34369" lon="-0.51176">
        <ele>21.35401</ele>
        <time>2013-12-19T14:12:28Z</time>
      </trkpt>
      <trkpt lat="46.34373" lon="-0.51178">
        <ele>21.35401</ele>
        <time>2013-12-19T14:12:33Z</time>
      </trkpt>
      <trkpt lat="46.34375" lon="-0.51182">
        <ele>21.35401</ele>
        <time>2013-12-19T14:12:38Z</time>
      </trkpt>
      <trkpt lat="46.3438" lon="-0.51188">
        <ele>21.879988</ele>
        <time>2013-12-19T14:12:43Z</time>
      </trkpt>
      <trkpt lat="46.34381" lon="-0.51188">
        <ele>21.879988</ele>
        <time>2013-12-19T14:12:48Z</time>
      </trkpt>
      <trkpt lat="46.34381" lon="-0.51189">
        <ele>21.879988</ele>
        <time>2013-12-19T14:12:53Z</time>
      </trkpt>
      <trkpt lat="46.34385" lon="-0.51189">
        <ele>21.879988</ele>
        <time>2013-12-19T14:12:58Z</time>
      </trkpt>
      <trkpt lat="46.34389" lon="-0.51189">
        <ele>22.760977</ele>
        <time>2013-12-19T14:13:03Z</time>
      </trkpt>
      <trkpt lat="46.34393" lon="-0.51187">
        <ele>22.760977</ele>
        <time>2013-12-19T14:13:08Z</time>
      </trkpt>
      <trkpt lat="46.34398" lon="-0.51187">
        <ele>23.375067</ele>
        <time>2013-12-19T14:13:13Z</time>
      </trkpt>
      <trkpt lat="46.34405" lon="-0.51188">
        <ele>23.375067</ele>
        <time>2013-12-19T14:13:18Z</time>
      </trkpt>
      <trkpt lat="46.34409" lon="-0.51185">
        <ele>24.220255</ele>
        <time>2013-12-19T14:13:23Z</time>
      </trkpt>
      <trkpt lat="46.34414" lon="-0.51185">
        <ele>24.220255</ele>
        <time>2013-12-19T14:13:28Z</time>
      </trkpt>
      <trkpt lat="46.34419" lon="-0.51186">
        <ele>25.054117</ele>
        <time>2013-12-19T14:13:33Z</time>
      </trkpt>
      <trkpt lat="46.34423" lon="-0.51187">
        <ele>25.054117</ele>
        <time>2013-12-19T14:13:38Z</time>
      </trkpt>
      <trkpt lat="46.34427" lon="-0.51184">
        <ele>25.054117</ele>
        <time>2013-12-19T14:13:43Z</time>
      </trkpt>
      <trkpt lat="46.34433" lon="-0.51184">
        <ele>25.711176</ele>
        <time>2013-12-19T14:13:48Z</time>
      </trkpt>
      <trkpt lat="46.34436" lon="-0.51184">
        <ele>25.711176</ele>
        <time>2013-12-19T14:13:53Z</time>
      </trkpt>
      <trkpt lat="46.34442" lon="-0.51185">
        <ele>25.71457</ele>
        <time>2013-12-19T14:13:58Z</time>
      </trkpt>
      <trkpt lat="46.34446" lon="-0.51186">
        <ele>25.71457</ele>
        <time>2013-12-19T14:14:03Z</time>
      </trkpt>
      <trkpt lat="46.34449" lon="-0.51189">
        <ele>25.71457</ele>
        <time>2013-12-19T14:14:08Z</time>
      </trkpt>
      <trkpt lat="46.34454" lon="-0.51192">
        <ele>25.892977</ele>
        <time>2013-12-19T14:14:13Z</time>
      </trkpt>
      <trkpt lat="46.34461" lon="-0.51195">
        <ele>25.892977</ele>
        <time>2013-12-19T14:14:18Z</time>
      </trkpt>
      <trkpt lat="46.34465" lon="-0.51198">
        <ele>26.350346</ele>
        <time>2013-12-19T14:14:23Z</time>
      </trkpt>
      <trkpt lat="46.34469" lon="-0.512">
        <ele>26.350346</ele>
        <time>2013-12-19T14:14:28Z</time>
      </trkpt>
      <trkpt lat="46.3447" lon="-0.51201">
        <ele>26.350346</ele>
        <time>2013-12-19T14:14:33Z</time>
      </trkpt>
      <trkpt lat="46.34474" lon="-0.51203">
        <ele>26.536669</ele>
        <time>2013-12-19T14:14:38Z</time>
      </trkpt>
      <trkpt lat="46.3448" lon="-0.51209">
        <ele>26.536669</ele>
        <time>2013-12-19T14:14:43Z</time>
      </trkpt>
      <trkpt lat="46.34482" lon="-0.51212">
        <ele>26.572817</ele>
        <time>2013-12-19T14:14:48Z</time>
      </trkpt>
      <trkpt lat="46.34488" lon="-0.51217">
        <ele>26.572817</ele>
        <time>2013-12-19T14:14:53Z</time>
      </trkpt>
      <trkpt lat="46.34493" lon="-0.51222">
        <ele>26.845201</ele>
        <time>2013-12-19T14:14:58Z</time>
      </trkpt>
      <trkpt lat="46.34498" lon="-0.51228">
        <ele>26.845201</ele>
        <time>2013-12-19T14:15:03Z</time>
      </trkpt>
      <trkpt lat="46.34503" lon="-0.51233">
        <ele>27.430035</ele>
        <time>2013-12-19T14:15:08Z</time>
      </trkpt>
      <trkpt lat="46.34506" lon="-0.51238">
        <ele>27.430035</ele>
        <time>2013-12-19T14:15:13Z</time>
      </trkpt>
      <trkpt lat="46.3451" lon="-0.51245">
        <ele>28.078117</ele>
        <time>2013-12-19T14:15:18Z</time>
      </trkpt>
      <trkpt lat="46.34512" lon="-0.51251">
        <ele>28.078117</ele>
        <time>2013-12-19T14:15:23Z</time>
      </trkpt>
      <trkpt lat="46.34515" lon="-0.51257">
        <ele>28.740017</ele>
        <time>2013-12-19T14:15:28Z</time>
      </trkpt>
      <trkpt lat="46.34518" lon="-0.51265">
        <ele>28.740017</ele>
        <time>2013-12-19T14:15:33Z</time>
      </trkpt>
      <trkpt lat="46.34521" lon="-0.51273">
        <ele>29.385942</ele>
        <time>2013-12-19T14:15:38Z</time>
      </trkpt>
      <trkpt lat="46.34523" lon="-0.51279">
        <ele>29.385942</ele>
        <time>2013-12-19T14:15:43Z</time>
      </trkpt>
      <trkpt lat="46.34525" lon="-0.51284">
        <ele>29.385942</ele>
        <time>2013-12-19T14:15:48Z</time>
      </trkpt>
      <trkpt lat="46.34528" lon="-0.51291">
        <ele>30.157333</ele>
        <time>2013-12-19T14:15:53Z</time>
      </trkpt>
      <trkpt lat="46.34531" lon="-0.51299">
        <ele>30.157333</ele>
        <time>2013-12-19T14:15:58Z</time>
      </trkpt>
      <trkpt lat="46.34534" lon="-0.51307">
        <ele>30.917572</ele>
        <time>2013-12-19T14:16:03Z</time>
      </trkpt>
      <trkpt lat="46.34536" lon="-0.51313">
        <ele>30.917572</ele>
        <time>2013-12-19T14:16:08Z</time>
      </trkpt>
      <trkpt lat="46.34537" lon="-0.51319">
        <ele>30.917572</ele>
        <time>2013-12-19T14:16:13Z</time>
      </trkpt>
      <trkpt lat="46.3454" lon="-0.51325">
        <ele>31.62561</ele>
        <time>2013-12-19T14:16:18Z</time>
      </trkpt>
      <trkpt lat="46.34541" lon="-0.51335">
        <ele>31.62561</ele>
        <time>2013-12-19T14:16:23Z</time>
      </trkpt>
      <trkpt lat="46.34544" lon="-0.51336">
        <ele>32.118572</ele>
        <time>2013-12-19T14:16:28Z</time>
      </trkpt>
      <trkpt lat="46.34546" lon="-0.51347">
        <ele>32.118572</ele>
        <time>2013-12-19T14:16:33Z</time>
      </trkpt>
      <trkpt lat="46.34548" lon="-0.51354">
        <ele>32.578217</ele>
        <time>2013-12-19T14:16:38Z</time>
      </trkpt>
      <trkpt lat="46.34551" lon="-0.51357">
        <ele>32.578217</ele>
        <time>2013-12-19T14:16:43Z</time>
      </trkpt>
      <trkpt lat="46.34552" lon="-0.51365">
        <ele>32.686478</ele>
        <time>2013-12-19T14:16:48Z</time>
      </trkpt>
      <trkpt lat="46.34555" lon="-0.51373">
        <ele>32.686478</ele>
        <time>2013-12-19T14:16:53Z</time>
      </trkpt>
      <trkpt lat="46.34558" lon="-0.51381">
        <ele>32.773006</ele>
        <time>2013-12-19T14:16:58Z</time>
      </trkpt>
      <trkpt lat="46.34561" lon="-0.51389">
        <ele>32.773006</ele>
        <time>2013-12-19T14:17:03Z</time>
      </trkpt>
      <trkpt lat="46.34563" lon="-0.51392">
        <ele>32.773006</ele>
        <time>2013-12-19T14:17:08Z</time>
      </trkpt>
      <trkpt lat="46.34565" lon="-0.51401">
        <ele>32.825165</ele>
        <time>2013-12-19T14:17:13Z</time>
      </trkpt>
      <trkpt lat="46.34566" lon="-0.51403">
        <ele>32.825165</ele>
        <time>2013-12-19T14:17:18Z</time>
      </trkpt>
      <trkpt lat="46.3457" lon="-0.51414">
        <ele>33.60629</ele>
        <time>2013-12-19T14:17:23Z</time>
      </trkpt>
      <trkpt lat="46.34571" lon="-0.51415">
        <ele>33.60629</ele>
        <time>2013-12-19T14:17:28Z</time>
      </trkpt>
      <trkpt lat="46.3457" lon="-0.51415">
        <ele>33.60629</ele>
        <time>2013-12-19T14:17:33Z</time>
      </trkpt>
      <trkpt lat="46.34573" lon="-0.51423">
        <ele>33.60629</ele>
        <time>2013-12-19T14:17:38Z</time>
      </trkpt>
      <trkpt lat="46.34576" lon="-0.51431">
        <ele>34.13717</ele>
        <time>2013-12-19T14:17:43Z</time>
      </trkpt>
      <trkpt lat="46.34579" lon="-0.51439">
        <ele>34.13717</ele>
        <time>2013-12-19T14:17:48Z</time>
      </trkpt>
      <trkpt lat="46.34581" lon="-0.51447">
        <ele>34.35995</ele>
        <time>2013-12-19T14:17:53Z</time>
      </trkpt>
      <trkpt lat="46.34584" lon="-0.51456">
        <ele>34.35995</ele>
        <time>2013-12-19T14:17:58Z</time>
      </trkpt>
      <trkpt lat="46.34587" lon="-0.51465">
        <ele>34.63721</ele>
        <time>2013-12-19T14:18:03Z</time>
      </trkpt>
      <trkpt lat="46.34589" lon="-0.51475">
        <ele>34.63721</ele>
        <time>2013-12-19T14:18:08Z</time>
      </trkpt>
      <trkpt lat="46.34592" lon="-0.51482">
        <ele>35.038475</ele>
        <time>2013-12-19T14:18:13Z</time>
      </trkpt>
      <trkpt lat="46.34595" lon="-0.51488">
        <ele>35.038475</ele>
        <time>2013-12-19T14:18:18Z</time>
      </trkpt>
      <trkpt lat="46.34596" lon="-0.51495">
        <ele>35.410793</ele>
        <time>2013-12-19T14:18:23Z</time>
      </trkpt>
      <trkpt lat="46.34599" lon="-0.51502">
        <ele>35.410793</ele>
        <time>2013-12-19T14:18:28Z</time>
      </trkpt>
      <trkpt lat="46.34601" lon="-0.51509">
        <ele>35.68247</ele>
        <time>2013-12-19T14:18:33Z</time>
      </trkpt>
      <trkpt lat="46.34604" lon="-0.51517">
        <ele>35.68247</ele>
        <time>2013-12-19T14:18:38Z</time>
      </trkpt>
      <trkpt lat="46.34606" lon="-0.51523">
        <ele>35.668148</ele>
        <time>2013-12-19T14:18:43Z</time>
      </trkpt>
      <trkpt lat="46.34608" lon="-0.51531">
        <ele>35.668148</ele>
        <time>2013-12-19T14:18:48Z</time>
      </trkpt>
      <trkpt lat="46.34611" lon="-0.51539">
        <ele>35.56502</ele>
        <time>2013-12-19T14:18:53Z</time>
      </trkpt>
      <trkpt lat="46.34613" lon="-0.51544">
        <ele>35.56502</ele>
        <time>2013-12-19T14:18:58Z</time>
      </trkpt>
      <trkpt lat="46.34615" lon="-0.51551">
        <ele>35.2021</ele>
        <time>2013-12-19T14:19:03Z</time>
      </trkpt>
      <trkpt lat="46.34617" lon="-0.51556">
        <ele>35.2021</ele>
        <time>2013-12-19T14:19:08Z</time>
      </trkpt>
      <trkpt lat="46.3462" lon="-0.51563">
        <ele>34.823997</ele>
        <time>2013-12-19T14:19:13Z</time>
      </trkpt>
      <trkpt lat="46.34622" lon="-0.5157">
        <ele>34.823997</ele>
        <time>2013-12-19T14:19:18Z</time>
      </trkpt>
      <trkpt lat="46.34624" lon="-0.51576">
        <ele>34.66018</ele>
        <time>2013-12-19T14:19:23Z</time>
      </trkpt>
      <trkpt lat="46.34626" lon="-0.51583">
        <ele>34.66018</ele>
        <time>2013-12-19T14:19:28Z</time>
      </trkpt>
      <trkpt lat="46.34628" lon="-0.5159">
        <ele>34.698063</ele>
        <time>2013-12-19T14:19:33Z</time>
      </trkpt>
      <trkpt lat="46.34631" lon="-0.51597">
        <ele>34.698063</ele>
        <time>2013-12-19T14:19:38Z</time>
      </trkpt>
      <trkpt lat="46.34633" lon="-0.51603">
        <ele>34.87932</ele>
        <time>2013-12-19T14:19:43Z</time>
      </trkpt>
      <trkpt lat="46.34636" lon="-0.51611">
        <ele>34.87932</ele>
        <time>2013-12-19T14:19:48Z</time>
      </trkpt>
      <trkpt lat="46.34638" lon="-0.51617">
        <ele>35.05819</ele>
        <time>2013-12-19T14:19:53Z</time>
      </trkpt>
      <trkpt lat="46.3464" lon="-0.51624">
        <ele>35.05819</ele>
        <time>2013-12-19T14:19:58Z</time>
      </trkpt>
      <trkpt lat="46.34643" lon="-0.51629">
        <ele>35.12964</ele>
        <time>2013-12-19T14:20:03Z</time>
      </trkpt>
      <trkpt lat="46.34644" lon="-0.51638">
        <ele>35.12964</ele>
        <time>2013-12-19T14:20:08Z</time>
      </trkpt>
      <trkpt lat="46.34647" lon="-0.51644">
        <ele>35.374435</ele>
        <time>2013-12-19T14:20:13Z</time>
      </trkpt>
      <trkpt lat="46.3465" lon="-0.51651">
        <ele>35.374435</ele>
        <time>2013-12-19T14:20:18Z</time>
      </trkpt>
      <trkpt lat="46.34652" lon="-0.51658">
        <ele>35.492615</ele>
        <time>2013-12-19T14:20:23Z</time>
      </trkpt>
      <trkpt lat="46.34654" lon="-0.51664">
        <ele>35.492615</ele>
        <time>2013-12-19T14:20:28Z</time>
      </trkpt>
      <trkpt lat="46.34656" lon="-0.51671">
        <ele>35.555008</ele>
        <time>2013-12-19T14:20:33Z</time>
      </trkpt>
      <trkpt lat="46.34658" lon="-0.51676">
        <ele>35.555008</ele>
        <time>2013-12-19T14:20:38Z</time>
      </trkpt>
      <trkpt lat="46.3466" lon="-0.51683">
        <ele>35.837753</ele>
        <time>2013-12-19T14:20:43Z</time>
      </trkpt>
      <trkpt lat="46.34663" lon="-0.51691">
        <ele>35.837753</ele>
        <time>2013-12-19T14:20:48Z</time>
      </trkpt>
      <trkpt lat="46.34666" lon="-0.51696">
        <ele>35.857258</ele>
        <time>2013-12-19T14:20:53Z</time>
      </trkpt>
      <trkpt lat="46.34668" lon="-0.51705">
        <ele>35.857258</ele>
        <time>2013-12-19T14:20:58Z</time>
      </trkpt>
      <trkpt lat="46.34669" lon="-0.51714">
        <ele>35.78563</ele>
        <time>2013-12-19T14:21:03Z</time>
      </trkpt>
      <trkpt lat="46.34672" lon="-0.51717">
        <ele>35.78563</ele>
        <time>2013-12-19T14:21:08Z</time>
      </trkpt>
      <trkpt lat="46.34675" lon="-0.51724">
        <ele>35.736103</ele>
        <time>2013-12-19T14:21:13Z</time>
      </trkpt>
      <trkpt lat="46.34676" lon="-0.5173">
        <ele>35.736103</ele>
        <time>2013-12-19T14:21:18Z</time>
      </trkpt>
      <trkpt lat="46.34677" lon="-0.51738">
        <ele>36.03628</ele>
        <time>2013-12-19T14:21:23Z</time>
      </trkpt>
      <trkpt lat="46.34679" lon="-0.51744">
        <ele>36.03628</ele>
        <time>2013-12-19T14:21:28Z</time>
      </trkpt>
      <trkpt lat="46.34682" lon="-0.51751">
        <ele>36.299946</ele>
        <time>2013-12-19T14:21:33Z</time>
      </trkpt>
      <trkpt lat="46.34685" lon="-0.51756">
        <ele>36.299946</ele>
        <time>2013-12-19T14:21:38Z</time>
      </trkpt>
      <trkpt lat="46.34687" lon="-0.51764">
        <ele>36.232918</ele>
        <time>2013-12-19T14:21:43Z</time>
      </trkpt>
      <trkpt lat="46.3469" lon="-0.5177">
        <ele>36.232918</ele>
        <time>2013-12-19T14:21:48Z</time>
      </trkpt>
      <trkpt lat="46.34691" lon="-0.51778">
        <ele>36.367004</ele>
        <time>2013-12-19T14:21:53Z</time>
      </trkpt>
      <trkpt lat="46.34694" lon="-0.51784">
        <ele>36.367004</ele>
        <time>2013-12-19T14:21:58Z</time>
      </trkpt>
      <trkpt lat="46.34696" lon="-0.51791">
        <ele>36.582607</ele>
        <time>2013-12-19T14:22:03Z</time>
      </trkpt>
      <trkpt lat="46.34698" lon="-0.51797">
        <ele>36.582607</ele>
        <time>2013-12-19T14:22:08Z</time>
      </trkpt>
      <trkpt lat="46.34701" lon="-0.51804">
        <ele>36.799435</ele>
        <time>2013-12-19T14:22:13Z</time>
      </trkpt>
      <trkpt lat="46.34703" lon="-0.51811">
        <ele>36.799435</ele>
        <time>2013-12-19T14:22:18Z</time>
      </trkpt>
      <trkpt lat="46.34706" lon="-0.51819">
        <ele>36.870335</ele>
        <time>2013-12-19T14:22:23Z</time>
      </trkpt>
      <trkpt lat="46.34708" lon="-0.51826">
        <ele>36.870335</ele>
        <time>2013-12-19T14:22:28Z</time>
      </trkpt>
      <trkpt lat="46.34711" lon="-0.51833">
        <ele>37.0864</ele>
        <time>2013-12-19T14:22:33Z</time>
      </trkpt>
      <trkpt lat="46.34713" lon="-0.51841">
        <ele>37.0864</ele>
        <time>2013-12-19T14:22:38Z</time>
      </trkpt>
      <trkpt lat="46.34716" lon="-0.51847">
        <ele>37.304195</ele>
        <time>2013-12-19T14:22:43Z</time>
      </trkpt>
      <trkpt lat="46.34718" lon="-0.51854">
        <ele>37.304195</ele>
        <time>2013-12-19T14:22:48Z</time>
      </trkpt>
      <trkpt lat="46.3472" lon="-0.51861">
        <ele>37.596706</ele>
        <time>2013-12-19T14:22:53Z</time>
      </trkpt>
      <trkpt lat="46.34722" lon="-0.51868">
        <ele>37.596706</ele>
        <time>2013-12-19T14:22:58Z</time>
      </trkpt>
      <trkpt lat="46.34724" lon="-0.51876">
        <ele>37.841114</ele>
        <time>2013-12-19T14:23:03Z</time>
      </trkpt>
      <trkpt lat="46.34727" lon="-0.51882">
        <ele>37.841114</ele>
        <time>2013-12-19T14:23:08Z</time>
      </trkpt>
      <trkpt lat="46.34729" lon="-0.51889">
        <ele>38.143112</ele>
        <time>2013-12-19T14:23:13Z</time>
      </trkpt>
      <trkpt lat="46.34731" lon="-0.51898">
        <ele>38.143112</ele>
        <time>2013-12-19T14:23:18Z</time>
      </trkpt>
      <trkpt lat="46.34734" lon="-0.51903">
        <ele>38.338013</ele>
        <time>2013-12-19T14:23:23Z</time>
      </trkpt>
      <trkpt lat="46.34737" lon="-0.5191">
        <ele>38.338013</ele>
        <time>2013-12-19T14:23:28Z</time>
      </trkpt>
      <trkpt lat="46.34739" lon="-0.51917">
        <ele>38.477764</ele>
        <time>2013-12-19T14:23:33Z</time>
      </trkpt>
      <trkpt lat="46.34741" lon="-0.51924">
        <ele>38.477764</ele>
        <time>2013-12-19T14:23:38Z</time>
      </trkpt>
      <trkpt lat="46.34743" lon="-0.51931">
        <ele>38.349247</ele>
        <time>2013-12-19T14:23:43Z</time>
      </trkpt>
      <trkpt lat="46.34746" lon="-0.51938">
        <ele>38.349247</ele>
        <time>2013-12-19T14:23:48Z</time>
      </trkpt>
      <trkpt lat="46.34748" lon="-0.51946">
        <ele>38.191242</ele>
        <time>2013-12-19T14:23:53Z</time>
      </trkpt>
      <trkpt lat="46.34751" lon="-0.51952">
        <ele>38.191242</ele>
        <time>2013-12-19T14:23:58Z</time>
      </trkpt>
      <trkpt lat="46.34754" lon="-0.51959">
        <ele>37.99243</ele>
        <time>2013-12-19T14:24:03Z</time>
      </trkpt>
      <trkpt lat="46.34756" lon="-0.51966">
        <ele>37.99243</ele>
        <time>2013-12-19T14:24:08Z</time>
      </trkpt>
      <trkpt lat="46.34758" lon="-0.51974">
        <ele>37.93046</ele>
        <time>2013-12-19T14:24:13Z</time>
      </trkpt>
      <trkpt lat="46.34761" lon="-0.51978">
        <ele>37.93046</ele>
        <time>2013-12-19T14:24:18Z</time>
      </trkpt>
      <trkpt lat="46.34763" lon="-0.51986">
        <ele>37.894474</ele>
        <time>2013-12-19T14:24:23Z</time>
      </trkpt>
      <trkpt lat="46.34765" lon="-0.51994">
        <ele>37.894474</ele>
        <time>2013-12-19T14:24:28Z</time>
      </trkpt>
      <trkpt lat="46.3477" lon="-0.51997">
        <ele>37.796425</ele>
        <time>2013-12-19T14:24:33Z</time>
      </trkpt>
      <trkpt lat="46.3477" lon="-0.52006">
        <ele>37.796425</ele>
        <time>2013-12-19T14:24:38Z</time>
      </trkpt>
      <trkpt lat="46.34773" lon="-0.52014">
        <ele>37.74275</ele>
        <time>2013-12-19T14:24:43Z</time>
      </trkpt>
      <trkpt lat="46.34775" lon="-0.5202">
        <ele>37.74275</ele>
        <time>2013-12-19T14:24:48Z</time>
      </trkpt>
      <trkpt lat="46.34778" lon="-0.52028">
        <ele>37.759583</ele>
        <time>2013-12-19T14:24:53Z</time>
      </trkpt>
      <trkpt lat="46.3478" lon="-0.52035">
        <ele>37.759583</ele>
        <time>2013-12-19T14:24:58Z</time>
      </trkpt>
      <trkpt lat="46.34782" lon="-0.52042">
        <ele>37.94306</ele>
        <time>2013-12-19T14:25:03Z</time>
      </trkpt>
      <trkpt lat="46.34785" lon="-0.52053">
        <ele>37.94306</ele>
        <time>2013-12-19T14:25:08Z</time>
      </trkpt>
      <trkpt lat="46.34787" lon="-0.52058">
        <ele>38.367287</ele>
        <time>2013-12-19T14:25:13Z</time>
      </trkpt>
      <trkpt lat="46.34791" lon="-0.52064">
        <ele>38.367287</ele>
        <time>2013-12-19T14:25:18Z</time>
      </trkpt>
      <trkpt lat="46.34793" lon="-0.52072">
        <ele>38.5811</ele>
        <time>2013-12-19T14:25:23Z</time>
      </trkpt>
      <trkpt lat="46.34794" lon="-0.52078">
        <ele>38.5811</ele>
        <time>2013-12-19T14:25:28Z</time>
      </trkpt>
      <trkpt lat="46.34797" lon="-0.52085">
        <ele>38.873817</ele>
        <time>2013-12-19T14:25:33Z</time>
      </trkpt>
      <trkpt lat="46.348" lon="-0.52094">
        <ele>38.873817</ele>
        <time>2013-12-19T14:25:38Z</time>
      </trkpt>
      <trkpt lat="46.34802" lon="-0.52099">
        <ele>38.994102</ele>
        <time>2013-12-19T14:25:43Z</time>
      </trkpt>
      <trkpt lat="46.34803" lon="-0.52107">
        <ele>38.994102</ele>
        <time>2013-12-19T14:25:48Z</time>
      </trkpt>
      <trkpt lat="46.34806" lon="-0.52114">
        <ele>39.372803</ele>
        <time>2013-12-19T14:25:53Z</time>
      </trkpt>
      <trkpt lat="46.34809" lon="-0.52121">
        <ele>39.372803</ele>
        <time>2013-12-19T14:25:58Z</time>
      </trkpt>
      <trkpt lat="46.34811" lon="-0.52126">
        <ele>39.64422</ele>
        <time>2013-12-19T14:26:03Z</time>
      </trkpt>
      <trkpt lat="46.34814" lon="-0.52134">
        <ele>39.64422</ele>
        <time>2013-12-19T14:26:08Z</time>
      </trkpt>
      <trkpt lat="46.34817" lon="-0.52142">
        <ele>39.873512</ele>
        <time>2013-12-19T14:26:13Z</time>
      </trkpt>
      <trkpt lat="46.34819" lon="-0.52148">
        <ele>39.873512</ele>
        <time>2013-12-19T14:26:18Z</time>
      </trkpt>
      <trkpt lat="46.34821" lon="-0.52153">
        <ele>40.19326</ele>
        <time>2013-12-19T14:26:23Z</time>
      </trkpt>
      <trkpt lat="46.34822" lon="-0.52161">
        <ele>40.19326</ele>
        <time>2013-12-19T14:26:28Z</time>
      </trkpt>
      <trkpt lat="46.34824" lon="-0.52168">
        <ele>40.43768</ele>
        <time>2013-12-19T14:26:33Z</time>
      </trkpt>
      <trkpt lat="46.34828" lon="-0.52175">
        <ele>40.43768</ele>
        <time>2013-12-19T14:26:38Z</time>
      </trkpt>
      <trkpt lat="46.34829" lon="-0.52183">
        <ele>40.611958</ele>
        <time>2013-12-19T14:26:43Z</time>
      </trkpt>
      <trkpt lat="46.34833" lon="-0.5219">
        <ele>40.611958</ele>
        <time>2013-12-19T14:26:48Z</time>
      </trkpt>
      <trkpt lat="46.34834" lon="-0.52196">
        <ele>40.850906</ele>
        <time>2013-12-19T14:26:53Z</time>
      </trkpt>
      <trkpt lat="46.34837" lon="-0.52204">
        <ele>40.850906</ele>
        <time>2013-12-19T14:26:58Z</time>
      </trkpt>
      <trkpt lat="46.34841" lon="-0.52212">
        <ele>41.00524</ele>
        <time>2013-12-19T14:27:03Z</time>
      </trkpt>
      <trkpt lat="46.34844" lon="-0.52219">
        <ele>41.00524</ele>
        <time>2013-12-19T14:27:08Z</time>
      </trkpt>
      <trkpt lat="46.34844" lon="-0.52223">
        <ele>41.00524</ele>
        <time>2013-12-19T14:27:13Z</time>
      </trkpt>
      <trkpt lat="46.34849" lon="-0.52231">
        <ele>40.965714</ele>
        <time>2013-12-19T14:27:18Z</time>
      </trkpt>
      <trkpt lat="46.34851" lon="-0.52239">
        <ele>40.965714</ele>
        <time>2013-12-19T14:27:23Z</time>
      </trkpt>
      <trkpt lat="46.34854" lon="-0.52246">
        <ele>41.107605</ele>
        <time>2013-12-19T14:27:28Z</time>
      </trkpt>
      <trkpt lat="46.34856" lon="-0.52253">
        <ele>41.107605</ele>
        <time>2013-12-19T14:27:33Z</time>
      </trkpt>
      <trkpt lat="46.34859" lon="-0.52261">
        <ele>41.5041</ele>
        <time>2013-12-19T14:27:38Z</time>
      </trkpt>
      <trkpt lat="46.3486" lon="-0.52267">
        <ele>41.5041</ele>
        <time>2013-12-19T14:27:43Z</time>
      </trkpt>
      <trkpt lat="46.34862" lon="-0.52274">
        <ele>42.020344</ele>
        <time>2013-12-19T14:27:48Z</time>
      </trkpt>
      <trkpt lat="46.34864" lon="-0.52282">
        <ele>42.020344</ele>
        <time>2013-12-19T14:27:53Z</time>
      </trkpt>
      <trkpt lat="46.34867" lon="-0.52288">
        <ele>42.314686</ele>
        <time>2013-12-19T14:27:58Z</time>
      </trkpt>
      <trkpt lat="46.34869" lon="-0.52295">
        <ele>42.314686</ele>
        <time>2013-12-19T14:28:03Z</time>
      </trkpt>
      <trkpt lat="46.34871" lon="-0.52301">
        <ele>42.54722</ele>
        <time>2013-12-19T14:28:08Z</time>
      </trkpt>
      <trkpt lat="46.34873" lon="-0.52306">
        <ele>42.54722</ele>
        <time>2013-12-19T14:28:13Z</time>
      </trkpt>
      <trkpt lat="46.34875" lon="-0.52313">
        <ele>42.75105</ele>
        <time>2013-12-19T14:28:18Z</time>
      </trkpt>
      <trkpt lat="46.34879" lon="-0.5232">
        <ele>42.75105</ele>
        <time>2013-12-19T14:28:23Z</time>
      </trkpt>
      <trkpt lat="46.3488" lon="-0.52327">
        <ele>42.985798</ele>
        <time>2013-12-19T14:28:28Z</time>
      </trkpt>
      <trkpt lat="46.34882" lon="-0.52333">
        <ele>42.985798</ele>
        <time>2013-12-19T14:28:33Z</time>
      </trkpt>
      <trkpt lat="46.34884" lon="-0.52341">
        <ele>43.378727</ele>
        <time>2013-12-19T14:28:38Z</time>
      </trkpt>
      <trkpt lat="46.34887" lon="-0.52348">
        <ele>43.378727</ele>
        <time>2013-12-19T14:28:43Z</time>
      </trkpt>
      <trkpt lat="46.34889" lon="-0.52355">
        <ele>43.412666</ele>
        <time>2013-12-19T14:28:48Z</time>
      </trkpt>
      <trkpt lat="46.3489" lon="-0.52362">
        <ele>43.412666</ele>
        <time>2013-12-19T14:28:53Z</time>
      </trkpt>
      <trkpt lat="46.34893" lon="-0.52369">
        <ele>43.34511</ele>
        <time>2013-12-19T14:28:58Z</time>
      </trkpt>
      <trkpt lat="46.34895" lon="-0.52377">
        <ele>43.34511</ele>
        <time>2013-12-19T14:29:03Z</time>
      </trkpt>
      <trkpt lat="46.34898" lon="-0.52385">
        <ele>43.42931</ele>
        <time>2013-12-19T14:29:08Z</time>
      </trkpt>
      <trkpt lat="46.34901" lon="-0.52391">
        <ele>43.42931</ele>
        <time>2013-12-19T14:29:13Z</time>
      </trkpt>
      <trkpt lat="46.34902" lon="-0.52396">
        <ele>43.625427</ele>
        <time>2013-12-19T14:29:18Z</time>
      </trkpt>
      <trkpt lat="46.34904" lon="-0.52403">
        <ele>43.625427</ele>
        <time>2013-12-19T14:29:23Z</time>
      </trkpt>
      <trkpt lat="46.34906" lon="-0.5241">
        <ele>43.69435</ele>
        <time>2013-12-19T14:29:28Z</time>
      </trkpt>
      <trkpt lat="46.34909" lon="-0.52418">
        <ele>43.69435</ele>
        <time>2013-12-19T14:29:33Z</time>
      </trkpt>
      <trkpt lat="46.34911" lon="-0.52425">
        <ele>43.64568</ele>
        <time>2013-12-19T14:29:38Z</time>
      </trkpt>
      <trkpt lat="46.34914" lon="-0.52431">
        <ele>43.64568</ele>
        <time>2013-12-19T14:29:43Z</time>
      </trkpt>
      <trkpt lat="46.34917" lon="-0.52438">
        <ele>43.618397</ele>
        <time>2013-12-19T14:29:48Z</time>
      </trkpt>
      <trkpt lat="46.34919" lon="-0.52446">
        <ele>43.618397</ele>
        <time>2013-12-19T14:29:53Z</time>
      </trkpt>
      <trkpt lat="46.34921" lon="-0.52453">
        <ele>43.467247</ele>
        <time>2013-12-19T14:29:58Z</time>
      </trkpt>
      <trkpt lat="46.34923" lon="-0.5246">
        <ele>43.467247</ele>
        <time>2013-12-19T14:30:03Z</time>
      </trkpt>
      <trkpt lat="46.34925" lon="-0.52466">
        <ele>43.37521</ele>
        <time>2013-12-19T14:30:08Z</time>
      </trkpt>
      <trkpt lat="46.34928" lon="-0.52472">
        <ele>43.37521</ele>
        <time>2013-12-19T14:30:13Z</time>
      </trkpt>
      <trkpt lat="46.3493" lon="-0.5248">
        <ele>43.396282</ele>
        <time>2013-12-19T14:30:18Z</time>
      </trkpt>
      <trkpt lat="46.34932" lon="-0.52488">
        <ele>43.396282</ele>
        <time>2013-12-19T14:30:23Z</time>
      </trkpt>
      <trkpt lat="46.34934" lon="-0.52495">
        <ele>43.262993</ele>
        <time>2013-12-19T14:30:28Z</time>
      </trkpt>
      <trkpt lat="46.34937" lon="-0.52502">
        <ele>43.262993</ele>
        <time>2013-12-19T14:30:33Z</time>
      </trkpt>
      <trkpt lat="46.34939" lon="-0.52509">
        <ele>43.174892</ele>
        <time>2013-12-19T14:30:38Z</time>
      </trkpt>
      <trkpt lat="46.34942" lon="-0.52516">
        <ele>43.174892</ele>
        <time>2013-12-19T14:30:43Z</time>
      </trkpt>
      <trkpt lat="46.34944" lon="-0.52522">
        <ele>43.172546</ele>
        <time>2013-12-19T14:30:48Z</time>
      </trkpt>
      <trkpt lat="46.34946" lon="-0.52528">
        <ele>43.172546</ele>
        <time>2013-12-19T14:30:53Z</time>
      </trkpt>
      <trkpt lat="46.34948" lon="-0.52536">
        <ele>43.264465</ele>
        <time>2013-12-19T14:30:58Z</time>
      </trkpt>
      <trkpt lat="46.34951" lon="-0.52543">
        <ele>43.264465</ele>
        <time>2013-12-19T14:31:03Z</time>
      </trkpt>
      <trkpt lat="46.34953" lon="-0.5255">
        <ele>43.530323</ele>
        <time>2013-12-19T14:31:08Z</time>
      </trkpt>
      <trkpt lat="46.34955" lon="-0.52557">
        <ele>43.530323</ele>
        <time>2013-12-19T14:31:13Z</time>
      </trkpt>
      <trkpt lat="46.34957" lon="-0.52564">
        <ele>43.726337</ele>
        <time>2013-12-19T14:31:18Z</time>
      </trkpt>
      <trkpt lat="46.3496" lon="-0.52571">
        <ele>43.726337</ele>
        <time>2013-12-19T14:31:23Z</time>
      </trkpt>
      <trkpt lat="46.34962" lon="-0.52576">
        <ele>43.95836</ele>
        <time>2013-12-19T14:31:28Z</time>
      </trkpt>
      <trkpt lat="46.34964" lon="-0.52583">
        <ele>43.95836</ele>
        <time>2013-12-19T14:31:33Z</time>
      </trkpt>
      <trkpt lat="46.34967" lon="-0.52589">
        <ele>44.10815</ele>
        <time>2013-12-19T14:31:38Z</time>
      </trkpt>
      <trkpt lat="46.34969" lon="-0.52595">
        <ele>44.10815</ele>
        <time>2013-12-19T14:31:43Z</time>
      </trkpt>
      <trkpt lat="46.34971" lon="-0.52602">
        <ele>44.03757</ele>
        <time>2013-12-19T14:31:48Z</time>
      </trkpt>
      <trkpt lat="46.34971" lon="-0.52608">
        <ele>44.03757</ele>
        <time>2013-12-19T14:31:53Z</time>
      </trkpt>
      <trkpt lat="46.34969" lon="-0.52614">
        <ele>44.03757</ele>
        <time>2013-12-19T14:31:58Z</time>
      </trkpt>
      <trkpt lat="46.34964" lon="-0.52618">
        <ele>44.123676</ele>
        <time>2013-12-19T14:32:03Z</time>
      </trkpt>
      <trkpt lat="46.3496" lon="-0.52623">
        <ele>44.123676</ele>
        <time>2013-12-19T14:32:08Z</time>
      </trkpt>
      <trkpt lat="46.34958" lon="-0.52628">
        <ele>44.34064</ele>
        <time>2013-12-19T14:32:13Z</time>
      </trkpt>
      <trkpt lat="46.34958" lon="-0.52637">
        <ele>44.34064</ele>
        <time>2013-12-19T14:32:18Z</time>
      </trkpt>
      <trkpt lat="46.34959" lon="-0.52644">
        <ele>44.592117</ele>
        <time>2013-12-19T14:32:23Z</time>
      </trkpt>
      <trkpt lat="46.34962" lon="-0.52651">
        <ele>44.592117</ele>
        <time>2013-12-19T14:32:28Z</time>
      </trkpt>
      <trkpt lat="46.34964" lon="-0.52658">
        <ele>45.076965</ele>
        <time>2013-12-19T14:32:33Z</time>
      </trkpt>
      <trkpt lat="46.34966" lon="-0.52665">
        <ele>45.076965</ele>
        <time>2013-12-19T14:32:38Z</time>
      </trkpt>
      <trkpt lat="46.34967" lon="-0.52673">
        <ele>45.849064</ele>
        <time>2013-12-19T14:32:43Z</time>
      </trkpt>
      <trkpt lat="46.34968" lon="-0.52681">
        <ele>45.849064</ele>
        <time>2013-12-19T14:32:48Z</time>
      </trkpt>
      <trkpt lat="46.34969" lon="-0.52689">
        <ele>46.68373</ele>
        <time>2013-12-19T14:32:53Z</time>
      </trkpt>
      <trkpt lat="46.34969" lon="-0.52698">
        <ele>46.68373</ele>
        <time>2013-12-19T14:32:58Z</time>
      </trkpt>
      <trkpt lat="46.34969" lon="-0.52706">
        <ele>47.53114</ele>
        <time>2013-12-19T14:33:03Z</time>
      </trkpt>
      <trkpt lat="46.34968" lon="-0.52713">
        <ele>47.53114</ele>
        <time>2013-12-19T14:33:08Z</time>
      </trkpt>
      <trkpt lat="46.34969" lon="-0.5272">
        <ele>48.172165</ele>
        <time>2013-12-19T14:33:13Z</time>
      </trkpt>
      <trkpt lat="46.34968" lon="-0.52728">
        <ele>48.172165</ele>
        <time>2013-12-19T14:33:18Z</time>
      </trkpt>
      <trkpt lat="46.34969" lon="-0.52733">
        <ele>48.64937</ele>
        <time>2013-12-19T14:33:23Z</time>
      </trkpt>
      <trkpt lat="46.34969" lon="-0.5274">
        <ele>48.64937</ele>
        <time>2013-12-19T14:33:28Z</time>
      </trkpt>
      <trkpt lat="46.34969" lon="-0.52748">
        <ele>48.75767</ele>
        <time>2013-12-19T14:33:33Z</time>
      </trkpt>
      <trkpt lat="46.34969" lon="-0.52757">
        <ele>48.75767</ele>
        <time>2013-12-19T14:33:38Z</time>
      </trkpt>
      <trkpt lat="46.34969" lon="-0.52764">
        <ele>48.8125</ele>
        <time>2013-12-19T14:33:43Z</time>
      </trkpt>
      <trkpt lat="46.34969" lon="-0.52773">
        <ele>48.8125</ele>
        <time>2013-12-19T14:33:48Z</time>
      </trkpt>
      <trkpt lat="46.34969" lon="-0.52781">
        <ele>49.10628</ele>
        <time>2013-12-19T14:33:53Z</time>
      </trkpt>
      <trkpt lat="46.34969" lon="-0.52785">
        <ele>49.10628</ele>
        <time>2013-12-19T14:33:58Z</time>
      </trkpt>
      <trkpt lat="46.34968" lon="-0.52796">
        <ele>49.34728</ele>
        <time>2013-12-19T14:34:03Z</time>
      </trkpt>
      <trkpt lat="46.34969" lon="-0.52804">
        <ele>49.34728</ele>
        <time>2013-12-19T14:34:08Z</time>
      </trkpt>
      <trkpt lat="46.34969" lon="-0.52811">
        <ele>49.66885</ele>
        <time>2013-12-19T14:34:13Z</time>
      </trkpt>
      <trkpt lat="46.3497" lon="-0.52818">
        <ele>49.66885</ele>
        <time>2013-12-19T14:34:18Z</time>
      </trkpt>
      <trkpt lat="46.34969" lon="-0.52827">
        <ele>49.819664</ele>
        <time>2013-12-19T14:34:23Z</time>
      </trkpt>
      <trkpt lat="46.34971" lon="-0.52835">
        <ele>49.819664</ele>
        <time>2013-12-19T14:34:28Z</time>
      </trkpt>
      <trkpt lat="46.34972" lon="-0.52843">
        <ele>49.8844</ele>
        <time>2013-12-19T14:34:33Z</time>
      </trkpt>
      <trkpt lat="46.34974" lon="-0.52849">
        <ele>49.8844</ele>
        <time>2013-12-19T14:34:38Z</time>
      </trkpt>
      <trkpt lat="46.34976" lon="-0.52857">
        <ele>50.244392</ele>
        <time>2013-12-19T14:34:43Z</time>
      </trkpt>
      <trkpt lat="46.34977" lon="-0.52863">
        <ele>50.244392</ele>
        <time>2013-12-19T14:34:48Z</time>
      </trkpt>
      <trkpt lat="46.34978" lon="-0.52869">
        <ele>50.244392</ele>
        <time>2013-12-19T14:34:53Z</time>
      </trkpt>
      <trkpt lat="46.34979" lon="-0.52877">
        <ele>50.50278</ele>
        <time>2013-12-19T14:34:58Z</time>
      </trkpt>
      <trkpt lat="46.3498" lon="-0.52887">
        <ele>50.50278</ele>
        <time>2013-12-19T14:35:03Z</time>
      </trkpt>
      <trkpt lat="46.34983" lon="-0.52893">
        <ele>50.681244</ele>
        <time>2013-12-19T14:35:08Z</time>
      </trkpt>
      <trkpt lat="46.34984" lon="-0.52901">
        <ele>50.681244</ele>
        <time>2013-12-19T14:35:13Z</time>
      </trkpt>
      <trkpt lat="46.34985" lon="-0.52909">
        <ele>50.900997</ele>
        <time>2013-12-19T14:35:18Z</time>
      </trkpt>
      <trkpt lat="46.34988" lon="-0.52915">
        <ele>50.900997</ele>
        <time>2013-12-19T14:35:23Z</time>
      </trkpt>
      <trkpt lat="46.3499" lon="-0.52923">
        <ele>51.25983</ele>
        <time>2013-12-19T14:35:28Z</time>
      </trkpt>
      <trkpt lat="46.34991" lon="-0.5293">
        <ele>51.25983</ele>
        <time>2013-12-19T14:35:33Z</time>
      </trkpt>
      <trkpt lat="46.34994" lon="-0.52936">
        <ele>52.2515</ele>
        <time>2013-12-19T14:35:38Z</time>
      </trkpt>
      <trkpt lat="46.34997" lon="-0.52942">
        <ele>52.2515</ele>
        <time>2013-12-19T14:35:43Z</time>
      </trkpt>
      <trkpt lat="46.34998" lon="-0.52949">
        <ele>53.351734</ele>
        <time>2013-12-19T14:35:48Z</time>
      </trkpt>
      <trkpt lat="46.35001" lon="-0.52958">
        <ele>53.351734</ele>
        <time>2013-12-19T14:35:53Z</time>
      </trkpt>
      <trkpt lat="46.35003" lon="-0.52966">
        <ele>54.276268</ele>
        <time>2013-12-19T14:35:58Z</time>
      </trkpt>
      <trkpt lat="46.35003" lon="-0.52971">
        <ele>54.276268</ele>
        <time>2013-12-19T14:36:03Z</time>
      </trkpt>
      <trkpt lat="46.35003" lon="-0.52978">
        <ele>54.276268</ele>
        <time>2013-12-19T14:36:08Z</time>
      </trkpt>
      <trkpt lat="46.35003" lon="-0.52985">
        <ele>55.13692</ele>
        <time>2013-12-19T14:36:13Z</time>
      </trkpt>
      <trkpt lat="46.35005" lon="-0.52993">
        <ele>55.13692</ele>
        <time>2013-12-19T14:36:18Z</time>
      </trkpt>
      <trkpt lat="46.35005" lon="-0.53">
        <ele>55.936626</ele>
        <time>2013-12-19T14:36:23Z</time>
      </trkpt>
      <trkpt lat="46.35005" lon="-0.53008">
        <ele>55.936626</ele>
        <time>2013-12-19T14:36:28Z</time>
      </trkpt>
      <trkpt lat="46.35006" lon="-0.53015">
        <ele>56.40448</ele>
        <time>2013-12-19T14:36:33Z</time>
      </trkpt>
      <trkpt lat="46.35005" lon="-0.53023">
        <ele>56.40448</ele>
        <time>2013-12-19T14:36:38Z</time>
      </trkpt>
      <trkpt lat="46.35006" lon="-0.53031">
        <ele>56.722794</ele>
        <time>2013-12-19T14:36:43Z</time>
      </trkpt>
      <trkpt lat="46.35007" lon="-0.5304">
        <ele>56.722794</ele>
        <time>2013-12-19T14:36:48Z</time>
      </trkpt>
      <trkpt lat="46.35007" lon="-0.53044">
        <ele>56.441235</ele>
        <time>2013-12-19T14:36:53Z</time>
      </trkpt>
      <trkpt lat="46.35007" lon="-0.53053">
        <ele>56.441235</ele>
        <time>2013-12-19T14:36:58Z</time>
      </trkpt>
      <trkpt lat="46.35008" lon="-0.5306">
        <ele>56.00896</ele>
        <time>2013-12-19T14:37:03Z</time>
      </trkpt>
      <trkpt lat="46.35008" lon="-0.53071">
        <ele>56.00896</ele>
        <time>2013-12-19T14:37:08Z</time>
      </trkpt>
      <trkpt lat="46.3501" lon="-0.53079">
        <ele>55.885803</ele>
        <time>2013-12-19T14:37:13Z</time>
      </trkpt>
      <trkpt lat="46.35011" lon="-0.53084">
        <ele>55.885803</ele>
        <time>2013-12-19T14:37:18Z</time>
      </trkpt>
      <trkpt lat="46.35011" lon="-0.5309">
        <ele>55.885803</ele>
        <time>2013-12-19T14:37:23Z</time>
      </trkpt>
      <trkpt lat="46.35012" lon="-0.53098">
        <ele>55.589046</ele>
        <time>2013-12-19T14:37:28Z</time>
      </trkpt>
      <trkpt lat="46.35012" lon="-0.53107">
        <ele>55.589046</ele>
        <time>2013-12-19T14:37:33Z</time>
      </trkpt>
      <trkpt lat="46.35013" lon="-0.53112">
        <ele>55.435734</ele>
        <time>2013-12-19T14:37:38Z</time>
      </trkpt>
      <trkpt lat="46.35011" lon="-0.5312">
        <ele>55.435734</ele>
        <time>2013-12-19T14:37:43Z</time>
      </trkpt>
      <trkpt lat="46.35006" lon="-0.53124">
        <ele>55.546295</ele>
        <time>2013-12-19T14:37:48Z</time>
      </trkpt>
      <trkpt lat="46.35001" lon="-0.53126">
        <ele>55.546295</ele>
        <time>2013-12-19T14:37:53Z</time>
      </trkpt>
      <trkpt lat="46.34995" lon="-0.53129">
        <ele>55.757748</ele>
        <time>2013-12-19T14:37:58Z</time>
      </trkpt>
      <trkpt lat="46.3499" lon="-0.53131">
        <ele>55.757748</ele>
        <time>2013-12-19T14:38:03Z</time>
      </trkpt>
      <trkpt lat="46.34984" lon="-0.53134">
        <ele>55.731464</ele>
        <time>2013-12-19T14:38:08Z</time>
      </trkpt>
      <trkpt lat="46.34979" lon="-0.53136">
        <ele>55.731464</ele>
        <time>2013-12-19T14:38:13Z</time>
      </trkpt>
      <trkpt lat="46.34974" lon="-0.53138">
        <ele>55.78844</ele>
        <time>2013-12-19T14:38:18Z</time>
      </trkpt>
      <trkpt lat="46.34968" lon="-0.53142">
        <ele>55.78844</ele>
        <time>2013-12-19T14:38:23Z</time>
      </trkpt>
      <trkpt lat="46.34962" lon="-0.53145">
        <ele>55.620594</ele>
        <time>2013-12-19T14:38:28Z</time>
      </trkpt>
      <trkpt lat="46.34956" lon="-0.53147">
        <ele>55.620594</ele>
        <time>2013-12-19T14:38:33Z</time>
      </trkpt>
      <trkpt lat="46.34952" lon="-0.53151">
        <ele>55.404255</ele>
        <time>2013-12-19T14:38:38Z</time>
      </trkpt>
      <trkpt lat="46.34947" lon="-0.53153">
        <ele>55.404255</ele>
        <time>2013-12-19T14:38:43Z</time>
      </trkpt>
      <trkpt lat="46.34941" lon="-0.53156">
        <ele>55.144394</ele>
        <time>2013-12-19T14:38:48Z</time>
      </trkpt>
      <trkpt lat="46.34935" lon="-0.53159">
        <ele>55.144394</ele>
        <time>2013-12-19T14:38:53Z</time>
      </trkpt>
      <trkpt lat="46.3493" lon="-0.53163">
        <ele>55.047497</ele>
        <time>2013-12-19T14:38:58Z</time>
      </trkpt>
      <trkpt lat="46.34925" lon="-0.53165">
        <ele>55.047497</ele>
        <time>2013-12-19T14:39:03Z</time>
      </trkpt>
      <trkpt lat="46.34921" lon="-0.53167">
        <ele>55.047497</ele>
        <time>2013-12-19T14:39:08Z</time>
      </trkpt>
      <trkpt lat="46.34916" lon="-0.53169">
        <ele>54.91529</ele>
        <time>2013-12-19T14:39:13Z</time>
      </trkpt>
      <trkpt lat="46.34911" lon="-0.53172">
        <ele>54.91529</ele>
        <time>2013-12-19T14:39:18Z</time>
      </trkpt>
      <trkpt lat="46.34906" lon="-0.53175">
        <ele>54.80915</ele>
        <time>2013-12-19T14:39:23Z</time>
      </trkpt>
      <trkpt lat="46.349" lon="-0.53179">
        <ele>54.80915</ele>
        <time>2013-12-19T14:39:28Z</time>
      </trkpt>
      <trkpt lat="46.34895" lon="-0.53181">
        <ele>54.74261</ele>
        <time>2013-12-19T14:39:33Z</time>
      </trkpt>
      <trkpt lat="46.3489" lon="-0.53184">
        <ele>54.74261</ele>
        <time>2013-12-19T14:39:38Z</time>
      </trkpt>
      <trkpt lat="46.34885" lon="-0.53187">
        <ele>54.540733</ele>
        <time>2013-12-19T14:39:43Z</time>
      </trkpt>
      <trkpt lat="46.34879" lon="-0.5319">
        <ele>54.540733</ele>
        <time>2013-12-19T14:39:48Z</time>
      </trkpt>
      <trkpt lat="46.34873" lon="-0.53192">
        <ele>54.387657</ele>
        <time>2013-12-19T14:39:53Z</time>
      </trkpt>
      <trkpt lat="46.34868" lon="-0.53195">
        <ele>54.387657</ele>
        <time>2013-12-19T14:39:58Z</time>
      </trkpt>
      <trkpt lat="46.34863" lon="-0.53197">
        <ele>54.0215</ele>
        <time>2013-12-19T14:40:03Z</time>
      </trkpt>
      <trkpt lat="46.34859" lon="-0.53199">
        <ele>54.0215</ele>
        <time>2013-12-19T14:40:08Z</time>
      </trkpt>
      <trkpt lat="46.34854" lon="-0.53202">
        <ele>53.589275</ele>
        <time>2013-12-19T14:40:13Z</time>
      </trkpt>
      <trkpt lat="46.34849" lon="-0.53205">
        <ele>53.589275</ele>
        <time>2013-12-19T14:40:18Z</time>
      </trkpt>
      <trkpt lat="46.34845" lon="-0.53207">
        <ele>53.140903</ele>
        <time>2013-12-19T14:40:23Z</time>
      </trkpt>
      <trkpt lat="46.34839" lon="-0.53211">
        <ele>53.140903</ele>
        <time>2013-12-19T14:40:28Z</time>
      </trkpt>
      <trkpt lat="46.34835" lon="-0.53213">
        <ele>52.57853</ele>
        <time>2013-12-19T14:40:33Z</time>
      </trkpt>
      <trkpt lat="46.34829" lon="-0.53216">
        <ele>52.57853</ele>
        <time>2013-12-19T14:40:38Z</time>
      </trkpt>
      <trkpt lat="46.34824" lon="-0.53218">
        <ele>52.07117</ele>
        <time>2013-12-19T14:40:43Z</time>
      </trkpt>
      <trkpt lat="46.3482" lon="-0.53221">
        <ele>52.07117</ele>
        <time>2013-12-19T14:40:48Z</time>
      </trkpt>
      <trkpt lat="46.34816" lon="-0.53221">
        <ele>51.6023</ele>
        <time>2013-12-19T14:40:53Z</time>
      </trkpt>
      <trkpt lat="46.34812" lon="-0.53223">
        <ele>51.6023</ele>
        <time>2013-12-19T14:40:58Z</time>
      </trkpt>
      <trkpt lat="46.34807" lon="-0.53225">
        <ele>51.142048</ele>
        <time>2013-12-19T14:41:03Z</time>
      </trkpt>
      <trkpt lat="46.34801" lon="-0.53228">
        <ele>51.142048</ele>
        <time>2013-12-19T14:41:08Z</time>
      </trkpt>
      <trkpt lat="46.34797" lon="-0.53231">
        <ele>50.8356</ele>
        <time>2013-12-19T14:41:13Z</time>
      </trkpt>
      <trkpt lat="46.34792" lon="-0.53234">
        <ele>50.8356</ele>
        <time>2013-12-19T14:41:18Z</time>
      </trkpt>
      <trkpt lat="46.34786" lon="-0.53237">
        <ele>50.572018</ele>
        <time>2013-12-19T14:41:23Z</time>
      </trkpt>
      <trkpt lat="46.34781" lon="-0.5324">
        <ele>50.572018</ele>
        <time>2013-12-19T14:41:28Z</time>
      </trkpt>
      <trkpt lat="46.34776" lon="-0.53242">
        <ele>50.277157</ele>
        <time>2013-12-19T14:41:33Z</time>
      </trkpt>
      <trkpt lat="46.34771" lon="-0.53243">
        <ele>50.277157</ele>
        <time>2013-12-19T14:41:38Z</time>
      </trkpt>
      <trkpt lat="46.34767" lon="-0.53243">
        <ele>49.896786</ele>
        <time>2013-12-19T14:41:43Z</time>
      </trkpt>
      <trkpt lat="46.34765" lon="-0.53242">
        <ele>49.896786</ele>
        <time>2013-12-19T14:41:48Z</time>
      </trkpt>
      <trkpt lat="46.34761" lon="-0.53241">
        <ele>49.896786</ele>
        <time>2013-12-19T14:41:53Z</time>
      </trkpt>
      <trkpt lat="46.34758" lon="-0.53236">
        <ele>49.510532</ele>
        <time>2013-12-19T14:41:58Z</time>
      </trkpt>
      <trkpt lat="46.34753" lon="-0.53233">
        <ele>49.510532</ele>
        <time>2013-12-19T14:42:03Z</time>
      </trkpt>
      <trkpt lat="46.34747" lon="-0.53232">
        <ele>49.307453</ele>
        <time>2013-12-19T14:42:08Z</time>
      </trkpt>
      <trkpt lat="46.34742" lon="-0.53234">
        <ele>49.307453</ele>
        <time>2013-12-19T14:42:13Z</time>
      </trkpt>
      <trkpt lat="46.34737" lon="-0.53236">
        <ele>49.26039</ele>
        <time>2013-12-19T14:42:18Z</time>
      </trkpt>
      <trkpt lat="46.34732" lon="-0.53239">
        <ele>49.26039</ele>
        <time>2013-12-19T14:42:23Z</time>
      </trkpt>
      <trkpt lat="46.34725" lon="-0.5324">
        <ele>49.430172</ele>
        <time>2013-12-19T14:42:28Z</time>
      </trkpt>
      <trkpt lat="46.3472" lon="-0.53242">
        <ele>49.430172</ele>
        <time>2013-12-19T14:42:33Z</time>
      </trkpt>
      <trkpt lat="46.34716" lon="-0.53247">
        <ele>49.4834</ele>
        <time>2013-12-19T14:42:38Z</time>
      </trkpt>
      <trkpt lat="46.34711" lon="-0.53249">
        <ele>49.4834</ele>
        <time>2013-12-19T14:42:43Z</time>
      </trkpt>
      <trkpt lat="46.34705" lon="-0.53251">
        <ele>49.55821</ele>
        <time>2013-12-19T14:42:48Z</time>
      </trkpt>
      <trkpt lat="46.34701" lon="-0.53254">
        <ele>49.55821</ele>
        <time>2013-12-19T14:42:53Z</time>
      </trkpt>
      <trkpt lat="46.34696" lon="-0.53255">
        <ele>49.50867</ele>
        <time>2013-12-19T14:42:58Z</time>
      </trkpt>
      <trkpt lat="46.34691" lon="-0.53258">
        <ele>49.50867</ele>
        <time>2013-12-19T14:43:03Z</time>
      </trkpt>
      <trkpt lat="46.34686" lon="-0.5326">
        <ele>49.459305</ele>
        <time>2013-12-19T14:43:08Z</time>
      </trkpt>
      <trkpt lat="46.34681" lon="-0.53264">
        <ele>49.459305</ele>
        <time>2013-12-19T14:43:13Z</time>
      </trkpt>
      <trkpt lat="46.34676" lon="-0.53266">
        <ele>49.251633</ele>
        <time>2013-12-19T14:43:18Z</time>
      </trkpt>
      <trkpt lat="46.34672" lon="-0.53268">
        <ele>49.251633</ele>
        <time>2013-12-19T14:43:23Z</time>
      </trkpt>
      <trkpt lat="46.34668" lon="-0.5327">
        <ele>48.91217</ele>
        <time>2013-12-19T14:43:28Z</time>
      </trkpt>
      <trkpt lat="46.34663" lon="-0.53274">
        <ele>48.91217</ele>
        <time>2013-12-19T14:43:33Z</time>
      </trkpt>
      <trkpt lat="46.34659" lon="-0.5328">
        <ele>48.60994</ele>
        <time>2013-12-19T14:43:38Z</time>
      </trkpt>
      <trkpt lat="46.34656" lon="-0.53286">
        <ele>48.60994</ele>
        <time>2013-12-19T14:43:43Z</time>
      </trkpt>
      <trkpt lat="46.34654" lon="-0.53292">
        <ele>48.256424</ele>
        <time>2013-12-19T14:43:48Z</time>
      </trkpt>
      <trkpt lat="46.34653" lon="-0.53299">
        <ele>48.256424</ele>
        <time>2013-12-19T14:43:53Z</time>
      </trkpt>
      <trkpt lat="46.3465" lon="-0.53305">
        <ele>47.740906</ele>
        <time>2013-12-19T14:43:58Z</time>
      </trkpt>
      <trkpt lat="46.34645" lon="-0.5331">
        <ele>47.740906</ele>
        <time>2013-12-19T14:44:03Z</time>
      </trkpt>
      <trkpt lat="46.3464" lon="-0.53313">
        <ele>47.235035</ele>
        <time>2013-12-19T14:44:08Z</time>
      </trkpt>
      <trkpt lat="46.34634" lon="-0.53315">
        <ele>47.235035</ele>
        <time>2013-12-19T14:44:13Z</time>
      </trkpt>
      <trkpt lat="46.34628" lon="-0.53318">
        <ele>46.580757</ele>
        <time>2013-12-19T14:44:18Z</time>
      </trkpt>
      <trkpt lat="46.34623" lon="-0.5332">
        <ele>46.580757</ele>
        <time>2013-12-19T14:44:23Z</time>
      </trkpt>
      <trkpt lat="46.34618" lon="-0.53323">
        <ele>45.905815</ele>
        <time>2013-12-19T14:44:28Z</time>
      </trkpt>
      <trkpt lat="46.34613" lon="-0.53326">
        <ele>45.905815</ele>
        <time>2013-12-19T14:44:33Z</time>
      </trkpt>
      <trkpt lat="46.34608" lon="-0.53328">
        <ele>45.242138</ele>
        <time>2013-12-19T14:44:38Z</time>
      </trkpt>
      <trkpt lat="46.34603" lon="-0.5333">
        <ele>45.242138</ele>
        <time>2013-12-19T14:44:43Z</time>
      </trkpt>
      <trkpt lat="46.34599" lon="-0.53333">
        <ele>44.72011</ele>
        <time>2013-12-19T14:44:48Z</time>
      </trkpt>
      <trkpt lat="46.34594" lon="-0.53336">
        <ele>44.72011</ele>
        <time>2013-12-19T14:44:53Z</time>
      </trkpt>
      <trkpt lat="46.34588" lon="-0.53338">
        <ele>44.229534</ele>
        <time>2013-12-19T14:44:58Z</time>
      </trkpt>
      <trkpt lat="46.34584" lon="-0.53341">
        <ele>44.229534</ele>
        <time>2013-12-19T14:45:03Z</time>
      </trkpt>
      <trkpt lat="46.34578" lon="-0.53344">
        <ele>43.75465</ele>
        <time>2013-12-19T14:45:08Z</time>
      </trkpt>
      <trkpt lat="46.34573" lon="-0.53346">
        <ele>43.75465</ele>
        <time>2013-12-19T14:45:13Z</time>
      </trkpt>
      <trkpt lat="46.34568" lon="-0.5335">
        <ele>43.38164</ele>
        <time>2013-12-19T14:45:18Z</time>
      </trkpt>
      <trkpt lat="46.34564" lon="-0.53351">
        <ele>43.38164</ele>
        <time>2013-12-19T14:45:23Z</time>
      </trkpt>
      <trkpt lat="46.34563" lon="-0.53352">
        <ele>43.38164</ele>
        <time>2013-12-19T14:45:28Z</time>
      </trkpt>
      <trkpt lat="46.34561" lon="-0.53353">
        <ele>43.38164</ele>
        <time>2013-12-19T14:45:33Z</time>
      </trkpt>
      <trkpt lat="46.34552" lon="-0.53358">
        <ele>43.017117</ele>
        <time>2013-12-19T14:45:38Z</time>
      </trkpt>
      <trkpt lat="46.34547" lon="-0.53361">
        <ele>43.017117</ele>
        <time>2013-12-19T14:45:43Z</time>
      </trkpt>
      <trkpt lat="46.3454" lon="-0.53364">
        <ele>42.862705</ele>
        <time>2013-12-19T14:45:48Z</time>
      </trkpt>
      <trkpt lat="46.34536" lon="-0.53366">
        <ele>42.862705</ele>
        <time>2013-12-19T14:45:53Z</time>
      </trkpt>
      <trkpt lat="46.34532" lon="-0.53368">
        <ele>42.744316</ele>
        <time>2013-12-19T14:45:58Z</time>
      </trkpt>
      <trkpt lat="46.34527" lon="-0.53371">
        <ele>42.744316</ele>
        <time>2013-12-19T14:46:03Z</time>
      </trkpt>
      <trkpt lat="46.34521" lon="-0.53374">
        <ele>42.58699</ele>
        <time>2013-12-19T14:46:08Z</time>
      </trkpt>
      <trkpt lat="46.34515" lon="-0.53377">
        <ele>42.58699</ele>
        <time>2013-12-19T14:46:13Z</time>
      </trkpt>
      <trkpt lat="46.34511" lon="-0.5338">
        <ele>42.364586</ele>
        <time>2013-12-19T14:46:18Z</time>
      </trkpt>
      <trkpt lat="46.34505" lon="-0.53382">
        <ele>42.364586</ele>
        <time>2013-12-19T14:46:23Z</time>
      </trkpt>
      <trkpt lat="46.34501" lon="-0.53385">
        <ele>42.067448</ele>
        <time>2013-12-19T14:46:28Z</time>
      </trkpt>
      <trkpt lat="46.34497" lon="-0.53387">
        <ele>42.067448</ele>
        <time>2013-12-19T14:46:33Z</time>
      </trkpt>
      <trkpt lat="46.34491" lon="-0.5339">
        <ele>41.802105</ele>
        <time>2013-12-19T14:46:38Z</time>
      </trkpt>
      <trkpt lat="46.34486" lon="-0.53393">
        <ele>41.802105</ele>
        <time>2013-12-19T14:46:43Z</time>
      </trkpt>
      <trkpt lat="46.34481" lon="-0.53396">
        <ele>41.623913</ele>
        <time>2013-12-19T14:46:48Z</time>
      </trkpt>
      <trkpt lat="46.34476" lon="-0.53398">
        <ele>41.623913</ele>
        <time>2013-12-19T14:46:53Z</time>
      </trkpt>
      <trkpt lat="46.34471" lon="-0.53401">
        <ele>41.483025</ele>
        <time>2013-12-19T14:46:58Z</time>
      </trkpt>
      <trkpt lat="46.34465" lon="-0.53403">
        <ele>41.483025</ele>
        <time>2013-12-19T14:47:03Z</time>
      </trkpt>
      <trkpt lat="46.3446" lon="-0.53406">
        <ele>41.304302</ele>
        <time>2013-12-19T14:47:08Z</time>
      </trkpt>
      <trkpt lat="46.34456" lon="-0.53409">
        <ele>41.304302</ele>
        <time>2013-12-19T14:47:13Z</time>
      </trkpt>
      <trkpt lat="46.34451" lon="-0.53412">
        <ele>41.047043</ele>
        <time>2013-12-19T14:47:18Z</time>
      </trkpt>
      <trkpt lat="46.34446" lon="-0.53415">
        <ele>41.047043</ele>
        <time>2013-12-19T14:47:23Z</time>
      </trkpt>
      <trkpt lat="46.34441" lon="-0.53417">
        <ele>40.673744</ele>
        <time>2013-12-19T14:47:28Z</time>
      </trkpt>
      <trkpt lat="46.34436" lon="-0.53419">
        <ele>40.673744</ele>
        <time>2013-12-19T14:47:33Z</time>
      </trkpt>
      <trkpt lat="46.3443" lon="-0.53422">
        <ele>40.337303</ele>
        <time>2013-12-19T14:47:38Z</time>
      </trkpt>
      <trkpt lat="46.34425" lon="-0.53424">
        <ele>40.337303</ele>
        <time>2013-12-19T14:47:43Z</time>
      </trkpt>
      <trkpt lat="46.3442" lon="-0.53427">
        <ele>39.991936</ele>
        <time>2013-12-19T14:47:48Z</time>
      </trkpt>
      <trkpt lat="46.34415" lon="-0.53429">
        <ele>39.991936</ele>
        <time>2013-12-19T14:47:53Z</time>
      </trkpt>
      <trkpt lat="46.34409" lon="-0.53432">
        <ele>39.624046</ele>
        <time>2013-12-19T14:47:58Z</time>
      </trkpt>
      <trkpt lat="46.34405" lon="-0.53434">
        <ele>39.624046</ele>
        <time>2013-12-19T14:48:03Z</time>
      </trkpt>
      <trkpt lat="46.344" lon="-0.53438">
        <ele>39.3508</ele>
        <time>2013-12-19T14:48:08Z</time>
      </trkpt>
      <trkpt lat="46.34395" lon="-0.5344">
        <ele>39.3508</ele>
        <time>2013-12-19T14:48:13Z</time>
      </trkpt>
      <trkpt lat="46.3439" lon="-0.53442">
        <ele>39.222828</ele>
        <time>2013-12-19T14:48:18Z</time>
      </trkpt>
      <trkpt lat="46.34386" lon="-0.53445">
        <ele>39.222828</ele>
        <time>2013-12-19T14:48:23Z</time>
      </trkpt>
      <trkpt lat="46.3438" lon="-0.53448">
        <ele>39.15692</ele>
        <time>2013-12-19T14:48:28Z</time>
      </trkpt>
      <trkpt lat="46.34376" lon="-0.5345">
        <ele>39.15692</ele>
        <time>2013-12-19T14:48:33Z</time>
      </trkpt>
      <trkpt lat="46.34371" lon="-0.53453">
        <ele>38.946106</ele>
        <time>2013-12-19T14:48:38Z</time>
      </trkpt>
      <trkpt lat="46.34367" lon="-0.53455">
        <ele>38.946106</ele>
        <time>2013-12-19T14:48:43Z</time>
      </trkpt>
      <trkpt lat="46.34361" lon="-0.53457">
        <ele>38.687237</ele>
        <time>2013-12-19T14:48:48Z</time>
      </trkpt>
      <trkpt lat="46.34356" lon="-0.53461">
        <ele>38.687237</ele>
        <time>2013-12-19T14:48:53Z</time>
      </trkpt>
      <trkpt lat="46.3435" lon="-0.53464">
        <ele>38.48459</ele>
        <time>2013-12-19T14:48:58Z</time>
      </trkpt>
      <trkpt lat="46.34345" lon="-0.53467">
        <ele>38.48459</ele>
        <time>2013-12-19T14:49:03Z</time>
      </trkpt>
      <trkpt lat="46.3434" lon="-0.5347">
        <ele>38.4058</ele>
        <time>2013-12-19T14:49:08Z</time>
      </trkpt>
      <trkpt lat="46.34334" lon="-0.53473">
        <ele>38.4058</ele>
        <time>2013-12-19T14:49:13Z</time>
      </trkpt>
      <trkpt lat="46.34328" lon="-0.53476">
        <ele>38.210552</ele>
        <time>2013-12-19T14:49:18Z</time>
      </trkpt>
      <trkpt lat="46.34323" lon="-0.53478">
        <ele>38.210552</ele>
        <time>2013-12-19T14:49:23Z</time>
      </trkpt>
      <trkpt lat="46.34318" lon="-0.53481">
        <ele>38.03679</ele>
        <time>2013-12-19T14:49:28Z</time>
      </trkpt>
      <trkpt lat="46.34313" lon="-0.53483">
        <ele>38.03679</ele>
        <time>2013-12-19T14:49:33Z</time>
      </trkpt>
      <trkpt lat="46.34307" lon="-0.53488">
        <ele>37.954605</ele>
        <time>2013-12-19T14:49:38Z</time>
      </trkpt>
      <trkpt lat="46.34301" lon="-0.53491">
        <ele>37.954605</ele>
        <time>2013-12-19T14:49:43Z</time>
      </trkpt>
      <trkpt lat="46.34296" lon="-0.53493">
        <ele>37.94224</ele>
        <time>2013-12-19T14:49:48Z</time>
      </trkpt>
      <trkpt lat="46.34291" lon="-0.53496">
        <ele>37.94224</ele>
        <time>2013-12-19T14:49:53Z</time>
      </trkpt>
      <trkpt lat="46.34285" lon="-0.53498">
        <ele>37.864044</ele>
        <time>2013-12-19T14:49:58Z</time>
      </trkpt>
      <trkpt lat="46.34279" lon="-0.53501">
        <ele>37.864044</ele>
        <time>2013-12-19T14:50:03Z</time>
      </trkpt>
      <trkpt lat="46.34275" lon="-0.53503">
        <ele>37.796276</ele>
        <time>2013-12-19T14:50:08Z</time>
      </trkpt>
      <trkpt lat="46.34269" lon="-0.53506">
        <ele>37.796276</ele>
        <time>2013-12-19T14:50:13Z</time>
      </trkpt>
      <trkpt lat="46.34264" lon="-0.53508">
        <ele>37.78075</ele>
        <time>2013-12-19T14:50:18Z</time>
      </trkpt>
      <trkpt lat="46.34259" lon="-0.53511">
        <ele>37.78075</ele>
        <time>2013-12-19T14:50:23Z</time>
      </trkpt>
      <trkpt lat="46.34255" lon="-0.53514">
        <ele>37.68314</ele>
        <time>2013-12-19T14:50:28Z</time>
      </trkpt>
      <trkpt lat="46.3425" lon="-0.53517">
        <ele>37.68314</ele>
        <time>2013-12-19T14:50:33Z</time>
      </trkpt>
      <trkpt lat="46.34245" lon="-0.5352">
        <ele>37.55215</ele>
        <time>2013-12-19T14:50:38Z</time>
      </trkpt>
      <trkpt lat="46.3424" lon="-0.53522">
        <ele>37.55215</ele>
        <time>2013-12-19T14:50:43Z</time>
      </trkpt>
      <trkpt lat="46.34234" lon="-0.53525">
        <ele>37.317738</ele>
        <time>2013-12-19T14:50:48Z</time>
      </trkpt>
      <trkpt lat="46.34229" lon="-0.53526">
        <ele>37.317738</ele>
        <time>2013-12-19T14:50:53Z</time>
      </trkpt>
      <trkpt lat="46.34224" lon="-0.5353">
        <ele>37.31881</ele>
        <time>2013-12-19T14:50:58Z</time>
      </trkpt>
      <trkpt lat="46.34219" lon="-0.53533">
        <ele>37.31881</ele>
        <time>2013-12-19T14:51:03Z</time>
      </trkpt>
      <trkpt lat="46.34215" lon="-0.53534">
        <ele>37.321106</ele>
        <time>2013-12-19T14:51:08Z</time>
      </trkpt>
      <trkpt lat="46.34211" lon="-0.53534">
        <ele>37.321106</ele>
        <time>2013-12-19T14:51:13Z</time>
      </trkpt>
      <trkpt lat="46.34208" lon="-0.53539">
        <ele>37.321106</ele>
        <time>2013-12-19T14:51:18Z</time>
      </trkpt>
      <trkpt lat="46.34204" lon="-0.53542">
        <ele>37.338165</ele>
        <time>2013-12-19T14:51:23Z</time>
      </trkpt>
      <trkpt lat="46.34199" lon="-0.53544">
        <ele>37.338165</ele>
        <time>2013-12-19T14:51:28Z</time>
      </trkpt>
      <trkpt lat="46.34194" lon="-0.53546">
        <ele>37.296036</ele>
        <time>2013-12-19T14:51:33Z</time>
      </trkpt>
      <trkpt lat="46.3419" lon="-0.5355">
        <ele>37.296036</ele>
        <time>2013-12-19T14:51:38Z</time>
      </trkpt>
      <trkpt lat="46.34186" lon="-0.53552">
        <ele>37.227257</ele>
        <time>2013-12-19T14:51:43Z</time>
      </trkpt>
      <trkpt lat="46.34181" lon="-0.53554">
        <ele>37.227257</ele>
        <time>2013-12-19T14:51:48Z</time>
      </trkpt>
      <trkpt lat="46.34176" lon="-0.53557">
        <ele>37.032368</ele>
        <time>2013-12-19T14:51:53Z</time>
      </trkpt>
      <trkpt lat="46.34171" lon="-0.53558">
        <ele>37.032368</ele>
        <time>2013-12-19T14:51:58Z</time>
      </trkpt>
      <trkpt lat="46.34165" lon="-0.53557">
        <ele>36.73488</ele>
        <time>2013-12-19T14:52:03Z</time>
      </trkpt>
      <trkpt lat="46.3416" lon="-0.53556">
        <ele>36.73488</ele>
        <time>2013-12-19T14:52:08Z</time>
      </trkpt>
      <trkpt lat="46.34156" lon="-0.53554">
        <ele>36.673912</ele>
        <time>2013-12-19T14:52:13Z</time>
      </trkpt>
      <trkpt lat="46.34151" lon="-0.53551">
        <ele>36.673912</ele>
        <time>2013-12-19T14:52:18Z</time>
      </trkpt>
      <trkpt lat="46.34146" lon="-0.53548">
        <ele>36.57218</ele>
        <time>2013-12-19T14:52:23Z</time>
      </trkpt>
      <trkpt lat="46.34142" lon="-0.53543">
        <ele>36.57218</ele>
        <time>2013-12-19T14:52:28Z</time>
      </trkpt>
      <trkpt lat="46.34138" lon="-0.53539">
        <ele>36.504345</ele>
        <time>2013-12-19T14:52:33Z</time>
      </trkpt>
      <trkpt lat="46.34133" lon="-0.53535">
        <ele>36.504345</ele>
        <time>2013-12-19T14:52:38Z</time>
      </trkpt>
      <trkpt lat="46.34129" lon="-0.53531">
        <ele>36.5251</ele>
        <time>2013-12-19T14:52:43Z</time>
      </trkpt>
      <trkpt lat="46.34124" lon="-0.53526">
        <ele>36.5251</ele>
        <time>2013-12-19T14:52:48Z</time>
      </trkpt>
      <trkpt lat="46.3412" lon="-0.53522">
        <ele>36.49754</ele>
        <time>2013-12-19T14:52:53Z</time>
      </trkpt>
      <trkpt lat="46.34116" lon="-0.53516">
        <ele>36.49754</ele>
        <time>2013-12-19T14:52:58Z</time>
      </trkpt>
      <trkpt lat="46.34113" lon="-0.53512">
        <ele>36.52554</ele>
        <time>2013-12-19T14:53:03Z</time>
      </trkpt>
      <trkpt lat="46.34108" lon="-0.53508">
        <ele>36.52554</ele>
        <time>2013-12-19T14:53:08Z</time>
      </trkpt>
      <trkpt lat="46.34103" lon="-0.53505">
        <ele>36.4314</ele>
        <time>2013-12-19T14:53:13Z</time>
      </trkpt>
      <trkpt lat="46.34098" lon="-0.53504">
        <ele>36.4314</ele>
        <time>2013-12-19T14:53:18Z</time>
      </trkpt>
      <trkpt lat="46.34092" lon="-0.53504">
        <ele>36.324642</ele>
        <time>2013-12-19T14:53:23Z</time>
      </trkpt>
      <trkpt lat="46.34087" lon="-0.53507">
        <ele>36.324642</ele>
        <time>2013-12-19T14:53:28Z</time>
      </trkpt>
      <trkpt lat="46.34083" lon="-0.5351">
        <ele>36.205925</ele>
        <time>2013-12-19T14:53:33Z</time>
      </trkpt>
      <trkpt lat="46.34079" lon="-0.53513">
        <ele>36.205925</ele>
        <time>2013-12-19T14:53:38Z</time>
      </trkpt>
      <trkpt lat="46.34075" lon="-0.53518">
        <ele>36.119125</ele>
        <time>2013-12-19T14:53:43Z</time>
      </trkpt>
      <trkpt lat="46.34071" lon="-0.53524">
        <ele>36.119125</ele>
        <time>2013-12-19T14:53:48Z</time>
      </trkpt>
      <trkpt lat="46.34066" lon="-0.53528">
        <ele>35.989555</ele>
        <time>2013-12-19T14:53:53Z</time>
      </trkpt>
      <trkpt lat="46.34063" lon="-0.53533">
        <ele>35.989555</ele>
        <time>2013-12-19T14:53:58Z</time>
      </trkpt>
      <trkpt lat="46.34057" lon="-0.53539">
        <ele>35.892242</ele>
        <time>2013-12-19T14:54:03Z</time>
      </trkpt>
      <trkpt lat="46.34053" lon="-0.53543">
        <ele>35.892242</ele>
        <time>2013-12-19T14:54:08Z</time>
      </trkpt>
      <trkpt lat="46.34049" lon="-0.53548">
        <ele>35.622826</ele>
        <time>2013-12-19T14:54:13Z</time>
      </trkpt>
      <trkpt lat="46.34046" lon="-0.53552">
        <ele>35.622826</ele>
        <time>2013-12-19T14:54:18Z</time>
      </trkpt>
      <trkpt lat="46.34042" lon="-0.53556">
        <ele>35.622826</ele>
        <time>2013-12-19T14:54:23Z</time>
      </trkpt>
      <trkpt lat="46.34038" lon="-0.53562">
        <ele>35.13656</ele>
        <time>2013-12-19T14:54:28Z</time>
      </trkpt>
      <trkpt lat="46.34033" lon="-0.53566">
        <ele>35.13656</ele>
        <time>2013-12-19T14:54:33Z</time>
      </trkpt>
      <trkpt lat="46.34029" lon="-0.5357">
        <ele>34.695236</ele>
        <time>2013-12-19T14:54:38Z</time>
      </trkpt>
      <trkpt lat="46.34025" lon="-0.53574">
        <ele>34.695236</ele>
        <time>2013-12-19T14:54:43Z</time>
      </trkpt>
      <trkpt lat="46.3402" lon="-0.53578">
        <ele>34.238678</ele>
        <time>2013-12-19T14:54:48Z</time>
      </trkpt>
      <trkpt lat="46.34015" lon="-0.53582">
        <ele>34.238678</ele>
        <time>2013-12-19T14:54:53Z</time>
      </trkpt>
      <trkpt lat="46.34011" lon="-0.53586">
        <ele>33.7544</ele>
        <time>2013-12-19T14:54:58Z</time>
      </trkpt>
      <trkpt lat="46.34007" lon="-0.53589">
        <ele>33.7544</ele>
        <time>2013-12-19T14:55:03Z</time>
      </trkpt>
      <trkpt lat="46.34002" lon="-0.53592">
        <ele>33.0868</ele>
        <time>2013-12-19T14:55:08Z</time>
      </trkpt>
      <trkpt lat="46.33998" lon="-0.53595">
        <ele>33.0868</ele>
        <time>2013-12-19T14:55:13Z</time>
      </trkpt>
      <trkpt lat="46.33992" lon="-0.53599">
        <ele>32.322807</ele>
        <time>2013-12-19T14:55:18Z</time>
      </trkpt>
      <trkpt lat="46.33987" lon="-0.53602">
        <ele>32.322807</ele>
        <time>2013-12-19T14:55:23Z</time>
      </trkpt>
      <trkpt lat="46.33981" lon="-0.53605">
        <ele>31.57205</ele>
        <time>2013-12-19T14:55:28Z</time>
      </trkpt>
      <trkpt lat="46.33976" lon="-0.53609">
        <ele>31.57205</ele>
        <time>2013-12-19T14:55:33Z</time>
      </trkpt>
      <trkpt lat="46.3397" lon="-0.53611">
        <ele>30.892824</ele>
        <time>2013-12-19T14:55:38Z</time>
      </trkpt>
      <trkpt lat="46.33965" lon="-0.53613">
        <ele>30.892824</ele>
        <time>2013-12-19T14:55:43Z</time>
      </trkpt>
      <trkpt lat="46.33961" lon="-0.53616">
        <ele>30.180405</ele>
        <time>2013-12-19T14:55:48Z</time>
      </trkpt>
      <trkpt lat="46.33955" lon="-0.53619">
        <ele>30.180405</ele>
        <time>2013-12-19T14:55:53Z</time>
      </trkpt>
      <trkpt lat="46.33951" lon="-0.53622">
        <ele>29.409899</ele>
        <time>2013-12-19T14:55:58Z</time>
      </trkpt>
      <trkpt lat="46.33946" lon="-0.53624">
        <ele>29.409899</ele>
        <time>2013-12-19T14:56:03Z</time>
      </trkpt>
      <trkpt lat="46.3394" lon="-0.53627">
        <ele>28.760134</ele>
        <time>2013-12-19T14:56:08Z</time>
      </trkpt>
      <trkpt lat="46.33936" lon="-0.5363">
        <ele>28.760134</ele>
        <time>2013-12-19T14:56:13Z</time>
      </trkpt>
      <trkpt lat="46.3393" lon="-0.53632">
        <ele>28.122633</ele>
        <time>2013-12-19T14:56:18Z</time>
      </trkpt>
      <trkpt lat="46.33925" lon="-0.53635">
        <ele>28.122633</ele>
        <time>2013-12-19T14:56:23Z</time>
      </trkpt>
      <trkpt lat="46.3392" lon="-0.53639">
        <ele>27.713875</ele>
        <time>2013-12-19T14:56:28Z</time>
      </trkpt>
      <trkpt lat="46.33915" lon="-0.53642">
        <ele>27.713875</ele>
        <time>2013-12-19T14:56:33Z</time>
      </trkpt>
      <trkpt lat="46.33911" lon="-0.53645">
        <ele>27.20055</ele>
        <time>2013-12-19T14:56:38Z</time>
      </trkpt>
      <trkpt lat="46.33906" lon="-0.53647">
        <ele>27.20055</ele>
        <time>2013-12-19T14:56:43Z</time>
      </trkpt>
      <trkpt lat="46.33901" lon="-0.53651">
        <ele>26.836142</ele>
        <time>2013-12-19T14:56:48Z</time>
      </trkpt>
      <trkpt lat="46.33895" lon="-0.53653">
        <ele>26.836142</ele>
        <time>2013-12-19T14:56:53Z</time>
      </trkpt>
      <trkpt lat="46.33891" lon="-0.53656">
        <ele>26.552433</ele>
        <time>2013-12-19T14:56:58Z</time>
      </trkpt>
      <trkpt lat="46.33886" lon="-0.53658">
        <ele>26.552433</ele>
        <time>2013-12-19T14:57:03Z</time>
      </trkpt>
      <trkpt lat="46.3388" lon="-0.5366">
        <ele>26.386843</ele>
        <time>2013-12-19T14:57:08Z</time>
      </trkpt>
      <trkpt lat="46.33876" lon="-0.53662">
        <ele>26.386843</ele>
        <time>2013-12-19T14:57:13Z</time>
      </trkpt>
      <trkpt lat="46.33871" lon="-0.53665">
        <ele>26.17193</ele>
        <time>2013-12-19T14:57:18Z</time>
      </trkpt>
      <trkpt lat="46.33866" lon="-0.53666">
        <ele>26.17193</ele>
        <time>2013-12-19T14:57:23Z</time>
      </trkpt>
      <trkpt lat="46.3386" lon="-0.53669">
        <ele>25.98325</ele>
        <time>2013-12-19T14:57:28Z</time>
      </trkpt>
      <trkpt lat="46.33855" lon="-0.53671">
        <ele>25.98325</ele>
        <time>2013-12-19T14:57:33Z</time>
      </trkpt>
      <trkpt lat="46.3385" lon="-0.53674">
        <ele>25.84748</ele>
        <time>2013-12-19T14:57:38Z</time>
      </trkpt>
      <trkpt lat="46.33846" lon="-0.53677">
        <ele>25.84748</ele>
        <time>2013-12-19T14:57:43Z</time>
      </trkpt>
      <trkpt lat="46.33841" lon="-0.53679">
        <ele>25.616241</ele>
        <time>2013-12-19T14:57:48Z</time>
      </trkpt>
      <trkpt lat="46.33835" lon="-0.53683">
        <ele>25.616241</ele>
        <time>2013-12-19T14:57:53Z</time>
      </trkpt>
      <trkpt lat="46.3383" lon="-0.53685">
        <ele>25.526993</ele>
        <time>2013-12-19T14:57:58Z</time>
      </trkpt>
      <trkpt lat="46.33825" lon="-0.53688">
        <ele>25.526993</ele>
        <time>2013-12-19T14:58:03Z</time>
      </trkpt>
      <trkpt lat="46.33821" lon="-0.53691">
        <ele>25.251715</ele>
        <time>2013-12-19T14:58:08Z</time>
      </trkpt>
      <trkpt lat="46.33816" lon="-0.53693">
        <ele>25.251715</ele>
        <time>2013-12-19T14:58:13Z</time>
      </trkpt>
      <trkpt lat="46.33811" lon="-0.53696">
        <ele>24.760809</ele>
        <time>2013-12-19T14:58:18Z</time>
      </trkpt>
      <trkpt lat="46.33805" lon="-0.53699">
        <ele>24.760809</ele>
        <time>2013-12-19T14:58:23Z</time>
      </trkpt>
      <trkpt lat="46.338" lon="-0.53701">
        <ele>24.056265</ele>
        <time>2013-12-19T14:58:28Z</time>
      </trkpt>
      <trkpt lat="46.33794" lon="-0.53704">
        <ele>24.056265</ele>
        <time>2013-12-19T14:58:33Z</time>
      </trkpt>
      <trkpt lat="46.33789" lon="-0.53706">
        <ele>23.11169</ele>
        <time>2013-12-19T14:58:38Z</time>
      </trkpt>
      <trkpt lat="46.33783" lon="-0.53707">
        <ele>23.11169</ele>
        <time>2013-12-19T14:58:43Z</time>
      </trkpt>
      <trkpt lat="46.33778" lon="-0.53706">
        <ele>22.03299</ele>
        <time>2013-12-19T14:58:48Z</time>
      </trkpt>
      <trkpt lat="46.33776" lon="-0.53701">
        <ele>22.03299</ele>
        <time>2013-12-19T14:58:53Z</time>
      </trkpt>
      <trkpt lat="46.33775" lon="-0.53692">
        <ele>21.134813</ele>
        <time>2013-12-19T14:58:58Z</time>
      </trkpt>
      <trkpt lat="46.33773" lon="-0.53687">
        <ele>21.134813</ele>
        <time>2013-12-19T14:59:03Z</time>
      </trkpt>
      <trkpt lat="46.33771" lon="-0.53679">
        <ele>20.21819</ele>
        <time>2013-12-19T14:59:08Z</time>
      </trkpt>
      <trkpt lat="46.33769" lon="-0.53671">
        <ele>20.21819</ele>
        <time>2013-12-19T14:59:13Z</time>
      </trkpt>
      <trkpt lat="46.33767" lon="-0.53664">
        <ele>19.545538</ele>
        <time>2013-12-19T14:59:18Z</time>
      </trkpt>
      <trkpt lat="46.33765" lon="-0.53656">
        <ele>19.545538</ele>
        <time>2013-12-19T14:59:23Z</time>
      </trkpt>
      <trkpt lat="46.33763" lon="-0.53649">
        <ele>18.797249</ele>
        <time>2013-12-19T14:59:28Z</time>
      </trkpt>
      <trkpt lat="46.33761" lon="-0.53639">
        <ele>18.797249</ele>
        <time>2013-12-19T14:59:33Z</time>
      </trkpt>
      <trkpt lat="46.33759" lon="-0.53633">
        <ele>18.124125</ele>
        <time>2013-12-19T14:59:38Z</time>
      </trkpt>
      <trkpt lat="46.33755" lon="-0.53626">
        <ele>18.124125</ele>
        <time>2013-12-19T14:59:43Z</time>
      </trkpt>
      <trkpt lat="46.33753" lon="-0.53618">
        <ele>17.507118</ele>
        <time>2013-12-19T14:59:48Z</time>
      </trkpt>
      <trkpt lat="46.3375" lon="-0.5361">
        <ele>17.507118</ele>
        <time>2013-12-19T14:59:53Z</time>
      </trkpt>
      <trkpt lat="46.33748" lon="-0.53603">
        <ele>16.89958</ele>
        <time>2013-12-19T14:59:58Z</time>
      </trkpt>
      <trkpt lat="46.33748" lon="-0.53598">
        <ele>16.89958</ele>
        <time>2013-12-19T15:00:03Z</time>
      </trkpt>
      <trkpt lat="46.33746" lon="-0.53589">
        <ele>16.37351</ele>
        <time>2013-12-19T15:00:08Z</time>
      </trkpt>
      <trkpt lat="46.33744" lon="-0.53582">
        <ele>16.37351</ele>
        <time>2013-12-19T15:00:13Z</time>
      </trkpt>
      <trkpt lat="46.33741" lon="-0.53575">
        <ele>15.851257</ele>
        <time>2013-12-19T15:00:18Z</time>
      </trkpt>
      <trkpt lat="46.3374" lon="-0.53569">
        <ele>15.851257</ele>
        <time>2013-12-19T15:00:23Z</time>
      </trkpt>
      <trkpt lat="46.33739" lon="-0.53564">
        <ele>15.851257</ele>
        <time>2013-12-19T15:00:28Z</time>
      </trkpt>
      <trkpt lat="46.33737" lon="-0.53554">
        <ele>15.419351</ele>
        <time>2013-12-19T15:00:33Z</time>
      </trkpt>
      <trkpt lat="46.33735" lon="-0.53546">
        <ele>15.419351</ele>
        <time>2013-12-19T15:00:38Z</time>
      </trkpt>
      <trkpt lat="46.33732" lon="-0.53538">
        <ele>15.1000395</ele>
        <time>2013-12-19T15:00:43Z</time>
      </trkpt>
      <trkpt lat="46.3373" lon="-0.53529">
        <ele>15.1000395</ele>
        <time>2013-12-19T15:00:48Z</time>
      </trkpt>
      <trkpt lat="46.33726" lon="-0.53523">
        <ele>14.683021</ele>
        <time>2013-12-19T15:00:53Z</time>
      </trkpt>
      <trkpt lat="46.33724" lon="-0.53517">
        <ele>14.683021</ele>
        <time>2013-12-19T15:00:58Z</time>
      </trkpt>
      <trkpt lat="46.33722" lon="-0.5351">
        <ele>13.973688</ele>
        <time>2013-12-19T15:01:03Z</time>
      </trkpt>
      <trkpt lat="46.3372" lon="-0.53503">
        <ele>13.973688</ele>
        <time>2013-12-19T15:01:08Z</time>
      </trkpt>
      <trkpt lat="46.33718" lon="-0.53495">
        <ele>13.484261</ele>
        <time>2013-12-19T15:01:13Z</time>
      </trkpt>
      <trkpt lat="46.33717" lon="-0.53488">
        <ele>13.484261</ele>
        <time>2013-12-19T15:01:18Z</time>
      </trkpt>
      <trkpt lat="46.33715" lon="-0.53481">
        <ele>13.011372</ele>
        <time>2013-12-19T15:01:23Z</time>
      </trkpt>
      <trkpt lat="46.33712" lon="-0.53473">
        <ele>13.011372</ele>
        <time>2013-12-19T15:01:28Z</time>
      </trkpt>
      <trkpt lat="46.3371" lon="-0.53464">
        <ele>12.380937</ele>
        <time>2013-12-19T15:01:33Z</time>
      </trkpt>
      <trkpt lat="46.33707" lon="-0.53455">
        <ele>12.380937</ele>
        <time>2013-12-19T15:01:38Z</time>
      </trkpt>
      <trkpt lat="46.33705" lon="-0.53448">
        <ele>11.864412</ele>
        <time>2013-12-19T15:01:43Z</time>
      </trkpt>
      <trkpt lat="46.33704" lon="-0.53439">
        <ele>11.864412</ele>
        <time>2013-12-19T15:01:48Z</time>
      </trkpt>
      <trkpt lat="46.33701" lon="-0.53434">
        <ele>11.439168</ele>
        <time>2013-12-19T15:01:53Z</time>
      </trkpt>
      <trkpt lat="46.337" lon="-0.53426">
        <ele>11.439168</ele>
        <time>2013-12-19T15:01:58Z</time>
      </trkpt>
      <trkpt lat="46.33698" lon="-0.53419">
        <ele>10.96867</ele>
        <time>2013-12-19T15:02:03Z</time>
      </trkpt>
      <trkpt lat="46.33697" lon="-0.53413">
        <ele>10.96867</ele>
        <time>2013-12-19T15:02:08Z</time>
      </trkpt>
      <trkpt lat="46.33696" lon="-0.53409">
        <ele>10.96867</ele>
        <time>2013-12-19T15:02:13Z</time>
      </trkpt>
      <trkpt lat="46.33694" lon="-0.53401">
        <ele>10.38417</ele>
        <time>2013-12-19T15:02:18Z</time>
      </trkpt>
      <trkpt lat="46.33693" lon="-0.53392">
        <ele>10.38417</ele>
        <time>2013-12-19T15:02:23Z</time>
      </trkpt>
      <trkpt lat="46.33691" lon="-0.53382">
        <ele>10.141072</ele>
        <time>2013-12-19T15:02:28Z</time>
      </trkpt>
      <trkpt lat="46.33689" lon="-0.53372">
        <ele>10.141072</ele>
        <time>2013-12-19T15:02:33Z</time>
      </trkpt>
      <trkpt lat="46.33686" lon="-0.53363">
        <ele>10.098326</ele>
        <time>2013-12-19T15:02:38Z</time>
      </trkpt>
      <trkpt lat="46.33685" lon="-0.53358">
        <ele>10.098326</ele>
        <time>2013-12-19T15:02:43Z</time>
      </trkpt>
      <trkpt lat="46.33683" lon="-0.5335">
        <ele>9.822034</ele>
        <time>2013-12-19T15:02:48Z</time>
      </trkpt>
      <trkpt lat="46.33681" lon="-0.53344">
        <ele>9.822034</ele>
        <time>2013-12-19T15:02:53Z</time>
      </trkpt>
      <trkpt lat="46.3368" lon="-0.53337">
        <ele>9.70343</ele>
        <time>2013-12-19T15:02:58Z</time>
      </trkpt>
      <trkpt lat="46.33678" lon="-0.53329">
        <ele>9.70343</ele>
        <time>2013-12-19T15:03:03Z</time>
      </trkpt>
      <trkpt lat="46.33676" lon="-0.53321">
        <ele>9.7731085</ele>
        <time>2013-12-19T15:03:08Z</time>
      </trkpt>
      <trkpt lat="46.33675" lon="-0.53314">
        <ele>9.7731085</ele>
        <time>2013-12-19T15:03:13Z</time>
      </trkpt>
      <trkpt lat="46.33674" lon="-0.53308">
        <ele>9.900364</ele>
        <time>2013-12-19T15:03:18Z</time>
      </trkpt>
      <trkpt lat="46.33672" lon="-0.53302">
        <ele>9.900364</ele>
        <time>2013-12-19T15:03:23Z</time>
      </trkpt>
      <trkpt lat="46.33668" lon="-0.53291">
        <ele>10.079225</ele>
        <time>2013-12-19T15:03:28Z</time>
      </trkpt>
      <trkpt lat="46.33667" lon="-0.53283">
        <ele>10.079225</ele>
        <time>2013-12-19T15:03:33Z</time>
      </trkpt>
      <trkpt lat="46.33666" lon="-0.53275">
        <ele>10.376077</ele>
        <time>2013-12-19T15:03:38Z</time>
      </trkpt>
      <trkpt lat="46.33663" lon="-0.53268">
        <ele>10.376077</ele>
        <time>2013-12-19T15:03:43Z</time>
      </trkpt>
      <trkpt lat="46.33661" lon="-0.53263">
        <ele>10.535069</ele>
        <time>2013-12-19T15:03:48Z</time>
      </trkpt>
      <trkpt lat="46.3366" lon="-0.53262">
        <ele>10.535069</ele>
        <time>2013-12-19T15:03:53Z</time>
      </trkpt>
      <trkpt lat="46.3366" lon="-0.53261">
        <ele>10.535069</ele>
        <time>2013-12-19T15:03:58Z</time>
      </trkpt>
      <trkpt lat="46.3366" lon="-0.5326">
        <ele>10.535069</ele>
        <time>2013-12-19T15:04:18Z</time>
      </trkpt>
      <trkpt lat="46.3366" lon="-0.53256">
        <ele>10.535069</ele>
        <time>2013-12-19T15:04:23Z</time>
      </trkpt>
      <trkpt lat="46.3366" lon="-0.53256">
        <ele>10.535069</ele>
        <time>2013-12-19T15:04:28Z</time>
      </trkpt>
      <trkpt lat="46.3366" lon="-0.53256">
        <ele>10.535069</ele>
        <time>2013-12-19T15:04:33Z</time>
      </trkpt>
      <trkpt lat="46.33662" lon="-0.53252">
        <ele>10.723061</ele>
        <time>2013-12-19T15:04:43Z</time>
      </trkpt>
      <trkpt lat="46.33663" lon="-0.53248">
        <ele>10.723061</ele>
        <time>2013-12-19T15:04:48Z</time>
      </trkpt>
      <trkpt lat="46.33661" lon="-0.53241">
        <ele>10.723061</ele>
        <time>2013-12-19T15:04:53Z</time>
      </trkpt>
      <trkpt lat="46.33663" lon="-0.53235">
        <ele>10.734317</ele>
        <time>2013-12-19T15:04:58Z</time>
      </trkpt>
      <trkpt lat="46.33661" lon="-0.53231">
        <ele>10.734317</ele>
        <time>2013-12-19T15:05:03Z</time>
      </trkpt>
      <trkpt lat="46.33661" lon="-0.53228">
        <ele>10.734317</ele>
        <time>2013-12-19T15:05:08Z</time>
      </trkpt>
      <trkpt lat="46.3366" lon="-0.53226">
        <ele>10.734317</ele>
        <time>2013-12-19T15:05:13Z</time>
      </trkpt>
      <trkpt lat="46.3366" lon="-0.53215">
        <ele>10.623726</ele>
        <time>2013-12-19T15:05:18Z</time>
      </trkpt>
      <trkpt lat="46.33659" lon="-0.53208">
        <ele>10.623726</ele>
        <time>2013-12-19T15:05:23Z</time>
      </trkpt>
      <trkpt lat="46.33659" lon="-0.53202">
        <ele>10.11106</ele>
        <time>2013-12-19T15:05:28Z</time>
      </trkpt>
      <trkpt lat="46.33661" lon="-0.53196">
        <ele>10.11106</ele>
        <time>2013-12-19T15:05:33Z</time>
      </trkpt>
      <trkpt lat="46.33659" lon="-0.53188">
        <ele>9.773675</ele>
        <time>2013-12-19T15:05:38Z</time>
      </trkpt>
      <trkpt lat="46.33659" lon="-0.5318">
        <ele>9.773675</ele>
        <time>2013-12-19T15:05:43Z</time>
      </trkpt>
      <trkpt lat="46.3366" lon="-0.53173">
        <ele>9.670485</ele>
        <time>2013-12-19T15:05:48Z</time>
      </trkpt>
      <trkpt lat="46.33661" lon="-0.53164">
        <ele>9.670485</ele>
        <time>2013-12-19T15:05:53Z</time>
      </trkpt>
      <trkpt lat="46.33664" lon="-0.53159">
        <ele>9.552811</ele>
        <time>2013-12-19T15:05:58Z</time>
      </trkpt>
      <trkpt lat="46.33668" lon="-0.53155">
        <ele>9.552811</ele>
        <time>2013-12-19T15:06:03Z</time>
      </trkpt>
      <trkpt lat="46.33671" lon="-0.5315">
        <ele>9.665878</ele>
        <time>2013-12-19T15:06:08Z</time>
      </trkpt>
      <trkpt lat="46.33679" lon="-0.53148">
        <ele>9.665878</ele>
        <time>2013-12-19T15:06:13Z</time>
      </trkpt>
      <trkpt lat="46.33685" lon="-0.53146">
        <ele>9.919233</ele>
        <time>2013-12-19T15:06:18Z</time>
      </trkpt>
      <trkpt lat="46.33689" lon="-0.53144">
        <ele>9.919233</ele>
        <time>2013-12-19T15:06:23Z</time>
      </trkpt>
      <trkpt lat="46.33694" lon="-0.53142">
        <ele>10.113415</ele>
        <time>2013-12-19T15:06:28Z</time>
      </trkpt>
      <trkpt lat="46.33698" lon="-0.53138">
        <ele>10.113415</ele>
        <time>2013-12-19T15:06:33Z</time>
      </trkpt>
      <trkpt lat="46.33703" lon="-0.53136">
        <ele>10.251157</ele>
        <time>2013-12-19T15:06:38Z</time>
      </trkpt>
      <trkpt lat="46.33707" lon="-0.53132">
        <ele>10.251157</ele>
        <time>2013-12-19T15:06:43Z</time>
      </trkpt>
      <trkpt lat="46.33712" lon="-0.5313">
        <ele>10.709874</ele>
        <time>2013-12-19T15:06:48Z</time>
      </trkpt>
      <trkpt lat="46.33716" lon="-0.53126">
        <ele>10.709874</ele>
        <time>2013-12-19T15:06:53Z</time>
      </trkpt>
      <trkpt lat="46.33722" lon="-0.53123">
        <ele>11.2763605</ele>
        <time>2013-12-19T15:06:58Z</time>
      </trkpt>
      <trkpt lat="46.33727" lon="-0.5312">
        <ele>11.2763605</ele>
        <time>2013-12-19T15:07:03Z</time>
      </trkpt>
      <trkpt lat="46.33733" lon="-0.53116">
        <ele>11.925746</ele>
        <time>2013-12-19T15:07:08Z</time>
      </trkpt>
      <trkpt lat="46.33738" lon="-0.53113">
        <ele>11.925746</ele>
        <time>2013-12-19T15:07:13Z</time>
      </trkpt>
      <trkpt lat="46.33742" lon="-0.5311">
        <ele>12.317753</ele>
        <time>2013-12-19T15:07:18Z</time>
      </trkpt>
      <trkpt lat="46.33748" lon="-0.53107">
        <ele>12.317753</ele>
        <time>2013-12-19T15:07:23Z</time>
      </trkpt>
      <trkpt lat="46.33752" lon="-0.53103">
        <ele>12.815196</ele>
        <time>2013-12-19T15:07:28Z</time>
      </trkpt>
      <trkpt lat="46.33756" lon="-0.53099">
        <ele>12.815196</ele>
        <time>2013-12-19T15:07:33Z</time>
      </trkpt>
      <trkpt lat="46.33762" lon="-0.53095">
        <ele>12.961381</ele>
        <time>2013-12-19T15:07:38Z</time>
      </trkpt>
      <trkpt lat="46.33766" lon="-0.53092">
        <ele>12.961381</ele>
        <time>2013-12-19T15:07:43Z</time>
      </trkpt>
      <trkpt lat="46.3377" lon="-0.53088">
        <ele>13.011522</ele>
        <time>2013-12-19T15:07:48Z</time>
      </trkpt>
      <trkpt lat="46.33776" lon="-0.53084">
        <ele>13.011522</ele>
        <time>2013-12-19T15:07:53Z</time>
      </trkpt>
      <trkpt lat="46.33781" lon="-0.53081">
        <ele>12.798899</ele>
        <time>2013-12-19T15:07:58Z</time>
      </trkpt>
      <trkpt lat="46.33784" lon="-0.53078">
        <ele>12.798899</ele>
        <time>2013-12-19T15:08:03Z</time>
      </trkpt>
      <trkpt lat="46.33789" lon="-0.53073">
        <ele>12.775091</ele>
        <time>2013-12-19T15:08:08Z</time>
      </trkpt>
      <trkpt lat="46.33793" lon="-0.5307">
        <ele>12.775091</ele>
        <time>2013-12-19T15:08:13Z</time>
      </trkpt>
      <trkpt lat="46.33797" lon="-0.53065">
        <ele>13.055394</ele>
        <time>2013-12-19T15:08:18Z</time>
      </trkpt>
      <trkpt lat="46.33802" lon="-0.53062">
        <ele>13.055394</ele>
        <time>2013-12-19T15:08:23Z</time>
      </trkpt>
      <trkpt lat="46.33807" lon="-0.53058">
        <ele>13.601717</ele>
        <time>2013-12-19T15:08:28Z</time>
      </trkpt>
      <trkpt lat="46.33811" lon="-0.53053">
        <ele>13.601717</ele>
        <time>2013-12-19T15:08:33Z</time>
      </trkpt>
      <trkpt lat="46.33815" lon="-0.5305">
        <ele>14.161905</ele>
        <time>2013-12-19T15:08:38Z</time>
      </trkpt>
      <trkpt lat="46.3382" lon="-0.53045">
        <ele>14.161905</ele>
        <time>2013-12-19T15:08:43Z</time>
      </trkpt>
      <trkpt lat="46.33824" lon="-0.5304">
        <ele>14.588803</ele>
        <time>2013-12-19T15:08:48Z</time>
      </trkpt>
      <trkpt lat="46.33829" lon="-0.53036">
        <ele>14.588803</ele>
        <time>2013-12-19T15:08:53Z</time>
      </trkpt>
      <trkpt lat="46.33834" lon="-0.53033">
        <ele>15.13559</ele>
        <time>2013-12-19T15:08:58Z</time>
      </trkpt>
      <trkpt lat="46.3384" lon="-0.53028">
        <ele>15.13559</ele>
        <time>2013-12-19T15:09:03Z</time>
      </trkpt>
      <trkpt lat="46.33844" lon="-0.53025">
        <ele>15.618641</ele>
        <time>2013-12-19T15:09:08Z</time>
      </trkpt>
      <trkpt lat="46.33849" lon="-0.53025">
        <ele>15.618641</ele>
        <time>2013-12-19T15:09:13Z</time>
      </trkpt>
      <trkpt lat="46.33855" lon="-0.53023">
        <ele>16.30039</ele>
        <time>2013-12-19T15:09:18Z</time>
      </trkpt>
      <trkpt lat="46.3386" lon="-0.53023">
        <ele>16.30039</ele>
        <time>2013-12-19T15:09:23Z</time>
      </trkpt>
      <trkpt lat="46.33866" lon="-0.53023">
        <ele>16.947922</ele>
        <time>2013-12-19T15:09:28Z</time>
      </trkpt>
      <trkpt lat="46.33871" lon="-0.53023">
        <ele>16.947922</ele>
        <time>2013-12-19T15:09:33Z</time>
      </trkpt>
      <trkpt lat="46.33875" lon="-0.53023">
        <ele>17.359995</ele>
        <time>2013-12-19T15:09:38Z</time>
      </trkpt>
      <trkpt lat="46.33881" lon="-0.53024">
        <ele>17.359995</ele>
        <time>2013-12-19T15:09:43Z</time>
      </trkpt>
      <trkpt lat="46.33885" lon="-0.53025">
        <ele>17.667917</ele>
        <time>2013-12-19T15:09:48Z</time>
      </trkpt>
      <trkpt lat="46.33891" lon="-0.53024">
        <ele>17.667917</ele>
        <time>2013-12-19T15:09:53Z</time>
      </trkpt>
      <trkpt lat="46.33896" lon="-0.53024">
        <ele>17.878407</ele>
        <time>2013-12-19T15:09:58Z</time>
      </trkpt>
      <trkpt lat="46.33903" lon="-0.53022">
        <ele>17.878407</ele>
        <time>2013-12-19T15:10:03Z</time>
      </trkpt>
      <trkpt lat="46.3391" lon="-0.53021">
        <ele>18.430357</ele>
        <time>2013-12-19T15:10:08Z</time>
      </trkpt>
      <trkpt lat="46.33915" lon="-0.53018">
        <ele>18.430357</ele>
        <time>2013-12-19T15:10:13Z</time>
      </trkpt>
      <trkpt lat="46.3392" lon="-0.53017">
        <ele>19.124247</ele>
        <time>2013-12-19T15:10:18Z</time>
      </trkpt>
      <trkpt lat="46.33925" lon="-0.53014">
        <ele>19.124247</ele>
        <time>2013-12-19T15:10:23Z</time>
      </trkpt>
      <trkpt lat="46.33931" lon="-0.53013">
        <ele>19.501064</ele>
        <time>2013-12-19T15:10:28Z</time>
      </trkpt>
      <trkpt lat="46.33937" lon="-0.53012">
        <ele>19.501064</ele>
        <time>2013-12-19T15:10:33Z</time>
      </trkpt>
      <trkpt lat="46.33941" lon="-0.53009">
        <ele>20.145231</ele>
        <time>2013-12-19T15:10:38Z</time>
      </trkpt>
      <trkpt lat="46.33946" lon="-0.53008">
        <ele>20.145231</ele>
        <time>2013-12-19T15:10:43Z</time>
      </trkpt>
      <trkpt lat="46.33952" lon="-0.53006">
        <ele>21.021109</ele>
        <time>2013-12-19T15:10:48Z</time>
      </trkpt>
      <trkpt lat="46.33957" lon="-0.53004">
        <ele>21.021109</ele>
        <time>2013-12-19T15:10:53Z</time>
      </trkpt>
      <trkpt lat="46.33962" lon="-0.53002">
        <ele>21.835672</ele>
        <time>2013-12-19T15:10:58Z</time>
      </trkpt>
      <trkpt lat="46.33967" lon="-0.52999">
        <ele>21.835672</ele>
        <time>2013-12-19T15:11:03Z</time>
      </trkpt>
      <trkpt lat="46.33971" lon="-0.52998">
        <ele>22.677938</ele>
        <time>2013-12-19T15:11:08Z</time>
      </trkpt>
      <trkpt lat="46.33975" lon="-0.52995">
        <ele>22.677938</ele>
        <time>2013-12-19T15:11:13Z</time>
      </trkpt>
      <trkpt lat="46.3398" lon="-0.52991">
        <ele>23.313316</ele>
        <time>2013-12-19T15:11:18Z</time>
      </trkpt>
      <trkpt lat="46.33984" lon="-0.52989">
        <ele>23.313316</ele>
        <time>2013-12-19T15:11:23Z</time>
      </trkpt>
      <trkpt lat="46.33988" lon="-0.52986">
        <ele>23.313316</ele>
        <time>2013-12-19T15:11:28Z</time>
      </trkpt>
      <trkpt lat="46.33994" lon="-0.52985">
        <ele>24.245646</ele>
        <time>2013-12-19T15:11:33Z</time>
      </trkpt>
      <trkpt lat="46.33999" lon="-0.52983">
        <ele>24.245646</ele>
        <time>2013-12-19T15:11:38Z</time>
      </trkpt>
      <trkpt lat="46.34004" lon="-0.5298">
        <ele>25.206018</ele>
        <time>2013-12-19T15:11:43Z</time>
      </trkpt>
      <trkpt lat="46.3401" lon="-0.52979">
        <ele>25.206018</ele>
        <time>2013-12-19T15:11:48Z</time>
      </trkpt>
      <trkpt lat="46.34014" lon="-0.52977">
        <ele>26.175838</ele>
        <time>2013-12-19T15:11:53Z</time>
      </trkpt>
      <trkpt lat="46.34019" lon="-0.52975">
        <ele>26.175838</ele>
        <time>2013-12-19T15:11:58Z</time>
      </trkpt>
      <trkpt lat="46.34024" lon="-0.52975">
        <ele>27.065857</ele>
        <time>2013-12-19T15:12:03Z</time>
      </trkpt>
      <trkpt lat="46.34027" lon="-0.52972">
        <ele>27.065857</ele>
        <time>2013-12-19T15:12:08Z</time>
      </trkpt>
      <trkpt lat="46.34033" lon="-0.52971">
        <ele>27.66397</ele>
        <time>2013-12-19T15:12:13Z</time>
      </trkpt>
      <trkpt lat="46.34038" lon="-0.52969">
        <ele>27.66397</ele>
        <time>2013-12-19T15:12:18Z</time>
      </trkpt>
      <trkpt lat="46.34041" lon="-0.52966">
        <ele>27.803362</ele>
        <time>2013-12-19T15:12:23Z</time>
      </trkpt>
      <trkpt lat="46.3404" lon="-0.52959">
        <ele>27.803362</ele>
        <time>2013-12-19T15:12:28Z</time>
      </trkpt>
      <trkpt lat="46.34037" lon="-0.52953">
        <ele>28.281946</ele>
        <time>2013-12-19T15:12:33Z</time>
      </trkpt>
      <trkpt lat="46.34036" lon="-0.52946">
        <ele>28.281946</ele>
        <time>2013-12-19T15:12:38Z</time>
      </trkpt>
      <trkpt lat="46.34034" lon="-0.52936">
        <ele>28.59878</ele>
        <time>2013-12-19T15:12:43Z</time>
      </trkpt>
      <trkpt lat="46.34031" lon="-0.52928">
        <ele>28.59878</ele>
        <time>2013-12-19T15:12:48Z</time>
      </trkpt>
      <trkpt lat="46.34028" lon="-0.52922">
        <ele>28.823433</ele>
        <time>2013-12-19T15:12:53Z</time>
      </trkpt>
      <trkpt lat="46.34026" lon="-0.52917">
        <ele>28.823433</ele>
        <time>2013-12-19T15:12:58Z</time>
      </trkpt>
      <trkpt lat="46.34024" lon="-0.52909">
        <ele>28.963032</ele>
        <time>2013-12-19T15:13:03Z</time>
      </trkpt>
      <trkpt lat="46.34022" lon="-0.52902">
        <ele>28.963032</ele>
        <time>2013-12-19T15:13:08Z</time>
      </trkpt>
      <trkpt lat="46.34019" lon="-0.52894">
        <ele>29.168571</ele>
        <time>2013-12-19T15:13:13Z</time>
      </trkpt>
      <trkpt lat="46.34017" lon="-0.52887">
        <ele>29.168571</ele>
        <time>2013-12-19T15:13:18Z</time>
      </trkpt>
      <trkpt lat="46.34014" lon="-0.52879">
        <ele>29.349234</ele>
        <time>2013-12-19T15:13:23Z</time>
      </trkpt>
      <trkpt lat="46.34011" lon="-0.52871">
        <ele>29.349234</ele>
        <time>2013-12-19T15:13:28Z</time>
      </trkpt>
      <trkpt lat="46.34009" lon="-0.52865">
        <ele>29.291273</ele>
        <time>2013-12-19T15:13:33Z</time>
      </trkpt>
      <trkpt lat="46.34006" lon="-0.5286">
        <ele>29.291273</ele>
        <time>2013-12-19T15:13:38Z</time>
      </trkpt>
      <trkpt lat="46.34003" lon="-0.52851">
        <ele>28.854994</ele>
        <time>2013-12-19T15:13:43Z</time>
      </trkpt>
      <trkpt lat="46.34001" lon="-0.52845">
        <ele>28.854994</ele>
        <time>2013-12-19T15:13:48Z</time>
      </trkpt>
      <trkpt lat="46.34" lon="-0.52838">
        <ele>28.445253</ele>
        <time>2013-12-19T15:13:53Z</time>
      </trkpt>
      <trkpt lat="46.33997" lon="-0.52829">
        <ele>28.445253</ele>
        <time>2013-12-19T15:13:58Z</time>
      </trkpt>
      <trkpt lat="46.33995" lon="-0.52823">
        <ele>27.687735</ele>
        <time>2013-12-19T15:14:03Z</time>
      </trkpt>
      <trkpt lat="46.33992" lon="-0.52816">
        <ele>27.687735</ele>
        <time>2013-12-19T15:14:08Z</time>
      </trkpt>
      <trkpt lat="46.33989" lon="-0.52808">
        <ele>26.885096</ele>
        <time>2013-12-19T15:14:13Z</time>
      </trkpt>
      <trkpt lat="46.33987" lon="-0.52801">
        <ele>26.885096</ele>
        <time>2013-12-19T15:14:18Z</time>
      </trkpt>
      <trkpt lat="46.33984" lon="-0.52792">
        <ele>26.317884</ele>
        <time>2013-12-19T15:14:23Z</time>
      </trkpt>
      <trkpt lat="46.33982" lon="-0.52784">
        <ele>26.317884</ele>
        <time>2013-12-19T15:14:28Z</time>
      </trkpt>
      <trkpt lat="46.33978" lon="-0.52776">
        <ele>25.841862</ele>
        <time>2013-12-19T15:14:33Z</time>
      </trkpt>
      <trkpt lat="46.33975" lon="-0.52769">
        <ele>25.841862</ele>
        <time>2013-12-19T15:14:38Z</time>
      </trkpt>
      <trkpt lat="46.33973" lon="-0.52763">
        <ele>25.26546</ele>
        <time>2013-12-19T15:14:43Z</time>
      </trkpt>
      <trkpt lat="46.3397" lon="-0.52755">
        <ele>25.26546</ele>
        <time>2013-12-19T15:14:48Z</time>
      </trkpt>
      <trkpt lat="46.33968" lon="-0.52747">
        <ele>24.584372</ele>
        <time>2013-12-19T15:14:53Z</time>
      </trkpt>
      <trkpt lat="46.33966" lon="-0.5274">
        <ele>24.584372</ele>
        <time>2013-12-19T15:14:58Z</time>
      </trkpt>
      <trkpt lat="46.33963" lon="-0.52733">
        <ele>23.866922</ele>
        <time>2013-12-19T15:15:03Z</time>
      </trkpt>
      <trkpt lat="46.33961" lon="-0.52726">
        <ele>23.866922</ele>
        <time>2013-12-19T15:15:08Z</time>
      </trkpt>
      <trkpt lat="46.33959" lon="-0.5272">
        <ele>23.219717</ele>
        <time>2013-12-19T15:15:13Z</time>
      </trkpt>
      <trkpt lat="46.33957" lon="-0.52712">
        <ele>23.219717</ele>
        <time>2013-12-19T15:15:18Z</time>
      </trkpt>
      <trkpt lat="46.33954" lon="-0.52705">
        <ele>22.640408</ele>
        <time>2013-12-19T15:15:23Z</time>
      </trkpt>
      <trkpt lat="46.33952" lon="-0.52699">
        <ele>22.640408</ele>
        <time>2013-12-19T15:15:28Z</time>
      </trkpt>
      <trkpt lat="46.3395" lon="-0.52691">
        <ele>22.169811</ele>
        <time>2013-12-19T15:15:33Z</time>
      </trkpt>
      <trkpt lat="46.33945" lon="-0.52684">
        <ele>22.169811</ele>
        <time>2013-12-19T15:15:38Z</time>
      </trkpt>
      <trkpt lat="46.33943" lon="-0.52679">
        <ele>21.75892</ele>
        <time>2013-12-19T15:15:43Z</time>
      </trkpt>
      <trkpt lat="46.33942" lon="-0.52673">
        <ele>21.75892</ele>
        <time>2013-12-19T15:15:48Z</time>
      </trkpt>
      <trkpt lat="46.33939" lon="-0.52664">
        <ele>21.607098</ele>
        <time>2013-12-19T15:15:53Z</time>
      </trkpt>
      <trkpt lat="46.33937" lon="-0.52658">
        <ele>21.607098</ele>
        <time>2013-12-19T15:15:58Z</time>
      </trkpt>
      <trkpt lat="46.33934" lon="-0.5265">
        <ele>21.336235</ele>
        <time>2013-12-19T15:16:03Z</time>
      </trkpt>
      <trkpt lat="46.33932" lon="-0.52644">
        <ele>21.336235</ele>
        <time>2013-12-19T15:16:08Z</time>
      </trkpt>
      <trkpt lat="46.3393" lon="-0.52637">
        <ele>21.05744</ele>
        <time>2013-12-19T15:16:13Z</time>
      </trkpt>
      <trkpt lat="46.33928" lon="-0.52631">
        <ele>21.05744</ele>
        <time>2013-12-19T15:16:18Z</time>
      </trkpt>
      <trkpt lat="46.33925" lon="-0.52624">
        <ele>21.147429</ele>
        <time>2013-12-19T15:16:23Z</time>
      </trkpt>
      <trkpt lat="46.33922" lon="-0.52614">
        <ele>21.147429</ele>
        <time>2013-12-19T15:16:28Z</time>
      </trkpt>
      <trkpt lat="46.33919" lon="-0.52608">
        <ele>21.40653</ele>
        <time>2013-12-19T15:16:33Z</time>
      </trkpt>
      <trkpt lat="46.33918" lon="-0.52603">
        <ele>21.40653</ele>
        <time>2013-12-19T15:16:38Z</time>
      </trkpt>
      <trkpt lat="46.33915" lon="-0.52597">
        <ele>21.605986</ele>
        <time>2013-12-19T15:16:43Z</time>
      </trkpt>
      <trkpt lat="46.33913" lon="-0.52589">
        <ele>21.605986</ele>
        <time>2013-12-19T15:16:48Z</time>
      </trkpt>
      <trkpt lat="46.33911" lon="-0.52583">
        <ele>21.750116</ele>
        <time>2013-12-19T15:16:53Z</time>
      </trkpt>
      <trkpt lat="46.33909" lon="-0.52576">
        <ele>21.750116</ele>
        <time>2013-12-19T15:16:58Z</time>
      </trkpt>
      <trkpt lat="46.33907" lon="-0.52567">
        <ele>22.001566</ele>
        <time>2013-12-19T15:17:03Z</time>
      </trkpt>
      <trkpt lat="46.33904" lon="-0.52561">
        <ele>22.001566</ele>
        <time>2013-12-19T15:17:08Z</time>
      </trkpt>
      <trkpt lat="46.33901" lon="-0.52555">
        <ele>22.337748</ele>
        <time>2013-12-19T15:17:13Z</time>
      </trkpt>
      <trkpt lat="46.339" lon="-0.52548">
        <ele>22.337748</ele>
        <time>2013-12-19T15:17:18Z</time>
      </trkpt>
      <trkpt lat="46.33898" lon="-0.5254">
        <ele>22.521294</ele>
        <time>2013-12-19T15:17:23Z</time>
      </trkpt>
      <trkpt lat="46.33895" lon="-0.52533">
        <ele>22.521294</ele>
        <time>2013-12-19T15:17:28Z</time>
      </trkpt>
      <trkpt lat="46.33893" lon="-0.52527">
        <ele>22.923521</ele>
        <time>2013-12-19T15:17:33Z</time>
      </trkpt>
      <trkpt lat="46.33891" lon="-0.52521">
        <ele>22.923521</ele>
        <time>2013-12-19T15:17:38Z</time>
      </trkpt>
      <trkpt lat="46.33888" lon="-0.52516">
        <ele>22.923521</ele>
        <time>2013-12-19T15:17:43Z</time>
      </trkpt>
      <trkpt lat="46.33885" lon="-0.52507">
        <ele>23.181684</ele>
        <time>2013-12-19T15:17:48Z</time>
      </trkpt>
      <trkpt lat="46.33884" lon="-0.52499">
        <ele>23.181684</ele>
        <time>2013-12-19T15:17:53Z</time>
      </trkpt>
      <trkpt lat="46.33881" lon="-0.52491">
        <ele>23.752672</ele>
        <time>2013-12-19T15:17:58Z</time>
      </trkpt>
      <trkpt lat="46.33879" lon="-0.52485">
        <ele>23.752672</ele>
        <time>2013-12-19T15:18:03Z</time>
      </trkpt>
      <trkpt lat="46.33877" lon="-0.52479">
        <ele>24.280712</ele>
        <time>2013-12-19T15:18:08Z</time>
      </trkpt>
      <trkpt lat="46.33874" lon="-0.52472">
        <ele>24.280712</ele>
        <time>2013-12-19T15:18:13Z</time>
      </trkpt>
      <trkpt lat="46.33872" lon="-0.52465">
        <ele>24.911837</ele>
        <time>2013-12-19T15:18:18Z</time>
      </trkpt>
      <trkpt lat="46.33869" lon="-0.52458">
        <ele>24.911837</ele>
        <time>2013-12-19T15:18:23Z</time>
      </trkpt>
      <trkpt lat="46.33866" lon="-0.52452">
        <ele>25.464006</ele>
        <time>2013-12-19T15:18:28Z</time>
      </trkpt>
      <trkpt lat="46.33864" lon="-0.52445">
        <ele>25.464006</ele>
        <time>2013-12-19T15:18:33Z</time>
      </trkpt>
      <trkpt lat="46.33862" lon="-0.52437">
        <ele>25.9417</ele>
        <time>2013-12-19T15:18:38Z</time>
      </trkpt>
      <trkpt lat="46.33859" lon="-0.5243">
        <ele>25.9417</ele>
        <time>2013-12-19T15:18:43Z</time>
      </trkpt>
      <trkpt lat="46.33857" lon="-0.52423">
        <ele>26.608679</ele>
        <time>2013-12-19T15:18:48Z</time>
      </trkpt>
      <trkpt lat="46.33854" lon="-0.52417">
        <ele>26.608679</ele>
        <time>2013-12-19T15:18:53Z</time>
      </trkpt>
      <trkpt lat="46.33852" lon="-0.52409">
        <ele>27.117937</ele>
        <time>2013-12-19T15:18:58Z</time>
      </trkpt>
      <trkpt lat="46.3385" lon="-0.52403">
        <ele>27.117937</ele>
        <time>2013-12-19T15:19:03Z</time>
      </trkpt>
      <trkpt lat="46.33848" lon="-0.52395">
        <ele>27.62398</ele>
        <time>2013-12-19T15:19:08Z</time>
      </trkpt>
      <trkpt lat="46.33845" lon="-0.52387">
        <ele>27.62398</ele>
        <time>2013-12-19T15:19:13Z</time>
      </trkpt>
      <trkpt lat="46.33843" lon="-0.52381">
        <ele>28.197926</ele>
        <time>2013-12-19T15:19:18Z</time>
      </trkpt>
      <trkpt lat="46.3384" lon="-0.52372">
        <ele>28.197926</ele>
        <time>2013-12-19T15:19:23Z</time>
      </trkpt>
      <trkpt lat="46.33837" lon="-0.52366">
        <ele>28.45874</ele>
        <time>2013-12-19T15:19:28Z</time>
      </trkpt>
      <trkpt lat="46.33835" lon="-0.52359">
        <ele>28.45874</ele>
        <time>2013-12-19T15:19:33Z</time>
      </trkpt>
      <trkpt lat="46.33834" lon="-0.52348">
        <ele>28.991001</ele>
        <time>2013-12-19T15:19:38Z</time>
      </trkpt>
      <trkpt lat="46.33831" lon="-0.52344">
        <ele>28.991001</ele>
        <time>2013-12-19T15:19:43Z</time>
      </trkpt>
      <trkpt lat="46.33829" lon="-0.52337">
        <ele>29.37005</ele>
        <time>2013-12-19T15:19:48Z</time>
      </trkpt>
      <trkpt lat="46.33826" lon="-0.52328">
        <ele>29.37005</ele>
        <time>2013-12-19T15:19:53Z</time>
      </trkpt>
      <trkpt lat="46.33823" lon="-0.52322">
        <ele>29.318163</ele>
        <time>2013-12-19T15:19:58Z</time>
      </trkpt>
      <trkpt lat="46.33821" lon="-0.52315">
        <ele>29.318163</ele>
        <time>2013-12-19T15:20:03Z</time>
      </trkpt>
      <trkpt lat="46.33819" lon="-0.52308">
        <ele>29.443907</ele>
        <time>2013-12-19T15:20:08Z</time>
      </trkpt>
      <trkpt lat="46.33816" lon="-0.52301">
        <ele>29.443907</ele>
        <time>2013-12-19T15:20:13Z</time>
      </trkpt>
      <trkpt lat="46.33814" lon="-0.52294">
        <ele>29.561285</ele>
        <time>2013-12-19T15:20:18Z</time>
      </trkpt>
      <trkpt lat="46.33812" lon="-0.52288">
        <ele>29.561285</ele>
        <time>2013-12-19T15:20:23Z</time>
      </trkpt>
      <trkpt lat="46.3381" lon="-0.52279">
        <ele>29.526825</ele>
        <time>2013-12-19T15:20:28Z</time>
      </trkpt>
      <trkpt lat="46.33807" lon="-0.52273">
        <ele>29.526825</ele>
        <time>2013-12-19T15:20:33Z</time>
      </trkpt>
      <trkpt lat="46.33805" lon="-0.52266">
        <ele>29.43861</ele>
        <time>2013-12-19T15:20:38Z</time>
      </trkpt>
      <trkpt lat="46.33803" lon="-0.52258">
        <ele>29.43861</ele>
        <time>2013-12-19T15:20:43Z</time>
      </trkpt>
      <trkpt lat="46.338" lon="-0.52251">
        <ele>29.445328</ele>
        <time>2013-12-19T15:20:48Z</time>
      </trkpt>
      <trkpt lat="46.33797" lon="-0.52246">
        <ele>29.445328</ele>
        <time>2013-12-19T15:20:53Z</time>
      </trkpt>
      <trkpt lat="46.33795" lon="-0.52237">
        <ele>29.28097</ele>
        <time>2013-12-19T15:20:58Z</time>
      </trkpt>
      <trkpt lat="46.33792" lon="-0.52229">
        <ele>29.28097</ele>
        <time>2013-12-19T15:21:03Z</time>
      </trkpt>
      <trkpt lat="46.33791" lon="-0.52221">
        <ele>29.146301</ele>
        <time>2013-12-19T15:21:08Z</time>
      </trkpt>
      <trkpt lat="46.33788" lon="-0.52215">
        <ele>29.146301</ele>
        <time>2013-12-19T15:21:13Z</time>
      </trkpt>
      <trkpt lat="46.33785" lon="-0.52207">
        <ele>28.924631</ele>
        <time>2013-12-19T15:21:18Z</time>
      </trkpt>
      <trkpt lat="46.33783" lon="-0.52199">
        <ele>28.924631</ele>
        <time>2013-12-19T15:21:23Z</time>
      </trkpt>
      <trkpt lat="46.33779" lon="-0.5219">
        <ele>28.493666</ele>
        <time>2013-12-19T15:21:28Z</time>
      </trkpt>
      <trkpt lat="46.33777" lon="-0.52184">
        <ele>28.493666</ele>
        <time>2013-12-19T15:21:33Z</time>
      </trkpt>
      <trkpt lat="46.33775" lon="-0.52176">
        <ele>27.985672</ele>
        <time>2013-12-19T15:21:38Z</time>
      </trkpt>
      <trkpt lat="46.33772" lon="-0.5217">
        <ele>27.985672</ele>
        <time>2013-12-19T15:21:43Z</time>
      </trkpt>
      <trkpt lat="46.3377" lon="-0.52162">
        <ele>27.321657</ele>
        <time>2013-12-19T15:21:48Z</time>
      </trkpt>
      <trkpt lat="46.33768" lon="-0.52154">
        <ele>27.321657</ele>
        <time>2013-12-19T15:21:53Z</time>
      </trkpt>
      <trkpt lat="46.33766" lon="-0.52146">
        <ele>27.149405</ele>
        <time>2013-12-19T15:21:58Z</time>
      </trkpt>
      <trkpt lat="46.33763" lon="-0.52139">
        <ele>27.149405</ele>
        <time>2013-12-19T15:22:03Z</time>
      </trkpt>
      <trkpt lat="46.33761" lon="-0.52134">
        <ele>27.07336</ele>
        <time>2013-12-19T15:22:08Z</time>
      </trkpt>
      <trkpt lat="46.33758" lon="-0.52126">
        <ele>27.07336</ele>
        <time>2013-12-19T15:22:13Z</time>
      </trkpt>
      <trkpt lat="46.33755" lon="-0.52119">
        <ele>27.000544</ele>
        <time>2013-12-19T15:22:18Z</time>
      </trkpt>
      <trkpt lat="46.33753" lon="-0.52111">
        <ele>27.000544</ele>
        <time>2013-12-19T15:22:23Z</time>
      </trkpt>
      <trkpt lat="46.3375" lon="-0.52104">
        <ele>26.974478</ele>
        <time>2013-12-19T15:22:28Z</time>
      </trkpt>
      <trkpt lat="46.33747" lon="-0.52097">
        <ele>26.974478</ele>
        <time>2013-12-19T15:22:33Z</time>
      </trkpt>
      <trkpt lat="46.33746" lon="-0.5209">
        <ele>26.73271</ele>
        <time>2013-12-19T15:22:38Z</time>
      </trkpt>
      <trkpt lat="46.33742" lon="-0.52083">
        <ele>26.73271</ele>
        <time>2013-12-19T15:22:43Z</time>
      </trkpt>
      <trkpt lat="46.3374" lon="-0.52076">
        <ele>26.292046</ele>
        <time>2013-12-19T15:22:48Z</time>
      </trkpt>
      <trkpt lat="46.33738" lon="-0.5207">
        <ele>26.292046</ele>
        <time>2013-12-19T15:22:53Z</time>
      </trkpt>
      <trkpt lat="46.33735" lon="-0.52064">
        <ele>26.028875</ele>
        <time>2013-12-19T15:22:58Z</time>
      </trkpt>
      <trkpt lat="46.33733" lon="-0.52056">
        <ele>26.028875</ele>
        <time>2013-12-19T15:23:03Z</time>
      </trkpt>
      <trkpt lat="46.33732" lon="-0.52052">
        <ele>26.028875</ele>
        <time>2013-12-19T15:23:08Z</time>
      </trkpt>
      <trkpt lat="46.33729" lon="-0.52044">
        <ele>26.046425</ele>
        <time>2013-12-19T15:23:13Z</time>
      </trkpt>
      <trkpt lat="46.33726" lon="-0.52036">
        <ele>26.046425</ele>
        <time>2013-12-19T15:23:23Z</time>
      </trkpt>
      <trkpt lat="46.33724" lon="-0.52028">
        <ele>26.036024</ele>
        <time>2013-12-19T15:23:28Z</time>
      </trkpt>
      <trkpt lat="46.33721" lon="-0.52019">
        <ele>26.036024</ele>
        <time>2013-12-19T15:23:33Z</time>
      </trkpt>
      <trkpt lat="46.33718" lon="-0.52012">
        <ele>25.942305</ele>
        <time>2013-12-19T15:23:38Z</time>
      </trkpt>
      <trkpt lat="46.33715" lon="-0.52003">
        <ele>25.942305</ele>
        <time>2013-12-19T15:23:43Z</time>
      </trkpt>
      <trkpt lat="46.33713" lon="-0.51994">
        <ele>25.714176</ele>
        <time>2013-12-19T15:23:48Z</time>
      </trkpt>
      <trkpt lat="46.3371" lon="-0.51985">
        <ele>25.714176</ele>
        <time>2013-12-19T15:23:53Z</time>
      </trkpt>
      <trkpt lat="46.33709" lon="-0.51976">
        <ele>25.463182</ele>
        <time>2013-12-19T15:23:58Z</time>
      </trkpt>
      <trkpt lat="46.33707" lon="-0.51969">
        <ele>25.463182</ele>
        <time>2013-12-19T15:24:03Z</time>
      </trkpt>
      <trkpt lat="46.33704" lon="-0.51964">
        <ele>25.191833</ele>
        <time>2013-12-19T15:24:08Z</time>
      </trkpt>
      <trkpt lat="46.33701" lon="-0.5196">
        <ele>25.191833</ele>
        <time>2013-12-19T15:24:13Z</time>
      </trkpt>
      <trkpt lat="46.33699" lon="-0.51951">
        <ele>24.931313</ele>
        <time>2013-12-19T15:24:18Z</time>
      </trkpt>
      <trkpt lat="46.33697" lon="-0.51944">
        <ele>24.931313</ele>
        <time>2013-12-19T15:24:23Z</time>
      </trkpt>
      <trkpt lat="46.33694" lon="-0.51939">
        <ele>24.62399</ele>
        <time>2013-12-19T15:24:28Z</time>
      </trkpt>
      <trkpt lat="46.33691" lon="-0.51932">
        <ele>24.62399</ele>
        <time>2013-12-19T15:24:33Z</time>
      </trkpt>
      <trkpt lat="46.3369" lon="-0.51923">
        <ele>24.245398</ele>
        <time>2013-12-19T15:24:38Z</time>
      </trkpt>
      <trkpt lat="46.33687" lon="-0.51917">
        <ele>24.245398</ele>
        <time>2013-12-19T15:24:43Z</time>
      </trkpt>
      <trkpt lat="46.33684" lon="-0.51909">
        <ele>24.061266</ele>
        <time>2013-12-19T15:24:48Z</time>
      </trkpt>
      <trkpt lat="46.33682" lon="-0.51902">
        <ele>24.061266</ele>
        <time>2013-12-19T15:24:53Z</time>
      </trkpt>
      <trkpt lat="46.3368" lon="-0.51894">
        <ele>23.784014</ele>
        <time>2013-12-19T15:24:58Z</time>
      </trkpt>
      <trkpt lat="46.33678" lon="-0.51886">
        <ele>23.784014</ele>
        <time>2013-12-19T15:25:03Z</time>
      </trkpt>
      <trkpt lat="46.33676" lon="-0.51878">
        <ele>23.334774</ele>
        <time>2013-12-19T15:25:08Z</time>
      </trkpt>
      <trkpt lat="46.33672" lon="-0.51873">
        <ele>23.334774</ele>
        <time>2013-12-19T15:25:13Z</time>
      </trkpt>
      <trkpt lat="46.33668" lon="-0.51866">
        <ele>22.813852</ele>
        <time>2013-12-19T15:25:18Z</time>
      </trkpt>
      <trkpt lat="46.33666" lon="-0.51859">
        <ele>22.813852</ele>
        <time>2013-12-19T15:25:23Z</time>
      </trkpt>
      <trkpt lat="46.33664" lon="-0.51851">
        <ele>22.458475</ele>
        <time>2013-12-19T15:25:28Z</time>
      </trkpt>
      <trkpt lat="46.33662" lon="-0.51844">
        <ele>22.458475</ele>
        <time>2013-12-19T15:25:33Z</time>
      </trkpt>
      <trkpt lat="46.33659" lon="-0.51837">
        <ele>22.041203</ele>
        <time>2013-12-19T15:25:38Z</time>
      </trkpt>
      <trkpt lat="46.33657" lon="-0.5183">
        <ele>22.041203</ele>
        <time>2013-12-19T15:25:43Z</time>
      </trkpt>
      <trkpt lat="46.33653" lon="-0.51822">
        <ele>21.711723</ele>
        <time>2013-12-19T15:25:48Z</time>
      </trkpt>
      <trkpt lat="46.33652" lon="-0.51816">
        <ele>21.711723</ele>
        <time>2013-12-19T15:25:53Z</time>
      </trkpt>
      <trkpt lat="46.33649" lon="-0.51807">
        <ele>21.46434</ele>
        <time>2013-12-19T15:25:58Z</time>
      </trkpt>
      <trkpt lat="46.33648" lon="-0.51801">
        <ele>21.46434</ele>
        <time>2013-12-19T15:26:03Z</time>
      </trkpt>
      <trkpt lat="46.33645" lon="-0.51792">
        <ele>20.976469</ele>
        <time>2013-12-19T15:26:08Z</time>
      </trkpt>
      <trkpt lat="46.33642" lon="-0.51785">
        <ele>20.976469</ele>
        <time>2013-12-19T15:26:13Z</time>
      </trkpt>
      <trkpt lat="46.33639" lon="-0.51778">
        <ele>20.439844</ele>
        <time>2013-12-19T15:26:18Z</time>
      </trkpt>
      <trkpt lat="46.33635" lon="-0.51773">
        <ele>20.439844</ele>
        <time>2013-12-19T15:26:23Z</time>
      </trkpt>
      <trkpt lat="46.33632" lon="-0.51765">
        <ele>19.801645</ele>
        <time>2013-12-19T15:26:28Z</time>
      </trkpt>
      <trkpt lat="46.3363" lon="-0.5176">
        <ele>19.801645</ele>
        <time>2013-12-19T15:26:33Z</time>
      </trkpt>
      <trkpt lat="46.33627" lon="-0.51754">
        <ele>18.95553</ele>
        <time>2013-12-19T15:26:38Z</time>
      </trkpt>
      <trkpt lat="46.33625" lon="-0.51751">
        <ele>18.95553</ele>
        <time>2013-12-19T15:26:43Z</time>
      </trkpt>
      <trkpt lat="46.33622" lon="-0.51741">
        <ele>18.178213</ele>
        <time>2013-12-19T15:26:48Z</time>
      </trkpt>
      <trkpt lat="46.3362" lon="-0.51737">
        <ele>18.178213</ele>
        <time>2013-12-19T15:26:53Z</time>
      </trkpt>
      <trkpt lat="46.33617" lon="-0.51729">
        <ele>17.639381</ele>
        <time>2013-12-19T15:26:58Z</time>
      </trkpt>
      <trkpt lat="46.33614" lon="-0.51721">
        <ele>17.639381</ele>
        <time>2013-12-19T15:27:03Z</time>
      </trkpt>
      <trkpt lat="46.33613" lon="-0.51712">
        <ele>16.731756</ele>
        <time>2013-12-19T15:27:08Z</time>
      </trkpt>
      <trkpt lat="46.33611" lon="-0.51704">
        <ele>16.731756</ele>
        <time>2013-12-19T15:27:13Z</time>
      </trkpt>
      <trkpt lat="46.33609" lon="-0.51698">
        <ele>16.37801</ele>
        <time>2013-12-19T15:27:18Z</time>
      </trkpt>
      <trkpt lat="46.33605" lon="-0.5169">
        <ele>16.37801</ele>
        <time>2013-12-19T15:27:23Z</time>
      </trkpt>
      <trkpt lat="46.33603" lon="-0.5168">
        <ele>15.817394</ele>
        <time>2013-12-19T15:27:28Z</time>
      </trkpt>
      <trkpt lat="46.33601" lon="-0.51673">
        <ele>15.817394</ele>
        <time>2013-12-19T15:27:33Z</time>
      </trkpt>
      <trkpt lat="46.33599" lon="-0.51665">
        <ele>15.412005</ele>
        <time>2013-12-19T15:27:38Z</time>
      </trkpt>
      <trkpt lat="46.33597" lon="-0.51656">
        <ele>15.412005</ele>
        <time>2013-12-19T15:27:43Z</time>
      </trkpt>
      <trkpt lat="46.33595" lon="-0.5165">
        <ele>15.136584</ele>
        <time>2013-12-19T15:27:48Z</time>
      </trkpt>
      <trkpt lat="46.33592" lon="-0.51645">
        <ele>15.136584</ele>
        <time>2013-12-19T15:27:53Z</time>
      </trkpt>
      <trkpt lat="46.3359" lon="-0.51637">
        <ele>14.794391</ele>
        <time>2013-12-19T15:27:58Z</time>
      </trkpt>
      <trkpt lat="46.33587" lon="-0.5163">
        <ele>14.794391</ele>
        <time>2013-12-19T15:28:03Z</time>
      </trkpt>
      <trkpt lat="46.33584" lon="-0.51624">
        <ele>14.592385</ele>
        <time>2013-12-19T15:28:08Z</time>
      </trkpt>
      <trkpt lat="46.33582" lon="-0.51617">
        <ele>14.592385</ele>
        <time>2013-12-19T15:28:13Z</time>
      </trkpt>
      <trkpt lat="46.33579" lon="-0.51609">
        <ele>14.491319</ele>
        <time>2013-12-19T15:28:18Z</time>
      </trkpt>
      <trkpt lat="46.33577" lon="-0.51603">
        <ele>14.491319</ele>
        <time>2013-12-19T15:28:23Z</time>
      </trkpt>
      <trkpt lat="46.33575" lon="-0.51596">
        <ele>14.58421</ele>
        <time>2013-12-19T15:28:28Z</time>
      </trkpt>
      <trkpt lat="46.33572" lon="-0.51587">
        <ele>14.58421</ele>
        <time>2013-12-19T15:28:33Z</time>
      </trkpt>
      <trkpt lat="46.3357" lon="-0.5158">
        <ele>14.841385</ele>
        <time>2013-12-19T15:28:38Z</time>
      </trkpt>
      <trkpt lat="46.33569" lon="-0.51573">
        <ele>14.841385</ele>
        <time>2013-12-19T15:28:43Z</time>
      </trkpt>
      <trkpt lat="46.33567" lon="-0.51565">
        <ele>15.206041</ele>
        <time>2013-12-19T15:28:48Z</time>
      </trkpt>
      <trkpt lat="46.33564" lon="-0.51559">
        <ele>15.206041</ele>
        <time>2013-12-19T15:28:53Z</time>
      </trkpt>
      <trkpt lat="46.33561" lon="-0.51552">
        <ele>15.668467</ele>
        <time>2013-12-19T15:28:58Z</time>
      </trkpt>
      <trkpt lat="46.3356" lon="-0.51547">
        <ele>15.668467</ele>
        <time>2013-12-19T15:29:03Z</time>
      </trkpt>
      <trkpt lat="46.33558" lon="-0.5154">
        <ele>15.668467</ele>
        <time>2013-12-19T15:29:08Z</time>
      </trkpt>
      <trkpt lat="46.33557" lon="-0.51534">
        <ele>16.579655</ele>
        <time>2013-12-19T15:29:13Z</time>
      </trkpt>
      <trkpt lat="46.33556" lon="-0.51531">
        <ele>16.579655</ele>
        <time>2013-12-19T15:29:18Z</time>
      </trkpt>
      <trkpt lat="46.33557" lon="-0.51528">
        <ele>16.579655</ele>
        <time>2013-12-19T15:29:28Z</time>
      </trkpt>
      <trkpt lat="46.33557" lon="-0.51531">
        <ele>16.579655</ele>
        <time>2013-12-19T15:29:33Z</time>
      </trkpt>
      <trkpt lat="46.33556" lon="-0.5153">
        <ele>16.579655</ele>
        <time>2013-12-19T15:29:38Z</time>
      </trkpt>
      <trkpt lat="46.33555" lon="-0.51523">
        <ele>17.44212</ele>
        <time>2013-12-19T15:29:43Z</time>
      </trkpt>
      <trkpt lat="46.33557" lon="-0.51519">
        <ele>17.44212</ele>
        <time>2013-12-19T15:29:48Z</time>
      </trkpt>
      <trkpt lat="46.3356" lon="-0.51512">
        <ele>17.996822</ele>
        <time>2013-12-19T15:29:53Z</time>
      </trkpt>
      <trkpt lat="46.33564" lon="-0.51506">
        <ele>17.996822</ele>
        <time>2013-12-19T15:29:58Z</time>
      </trkpt>
      <trkpt lat="46.33569" lon="-0.515">
        <ele>18.552252</ele>
        <time>2013-12-19T15:30:03Z</time>
      </trkpt>
      <trkpt lat="46.33573" lon="-0.51495">
        <ele>18.552252</ele>
        <time>2013-12-19T15:30:08Z</time>
      </trkpt>
      <trkpt lat="46.33577" lon="-0.51489">
        <ele>19.019566</ele>
        <time>2013-12-19T15:30:13Z</time>
      </trkpt>
      <trkpt lat="46.3358" lon="-0.51484">
        <ele>19.019566</ele>
        <time>2013-12-19T15:30:18Z</time>
      </trkpt>
      <trkpt lat="46.33584" lon="-0.51479">
        <ele>19.518475</ele>
        <time>2013-12-19T15:30:23Z</time>
      </trkpt>
      <trkpt lat="46.33587" lon="-0.51474">
        <ele>19.518475</ele>
        <time>2013-12-19T15:30:28Z</time>
      </trkpt>
      <trkpt lat="46.33591" lon="-0.51469">
        <ele>19.90044</ele>
        <time>2013-12-19T15:30:33Z</time>
      </trkpt>
      <trkpt lat="46.33595" lon="-0.51464">
        <ele>19.90044</ele>
        <time>2013-12-19T15:30:38Z</time>
      </trkpt>
      <trkpt lat="46.33601" lon="-0.5146">
        <ele>20.38848</ele>
        <time>2013-12-19T15:30:43Z</time>
      </trkpt>
      <trkpt lat="46.33605" lon="-0.51453">
        <ele>20.38848</ele>
        <time>2013-12-19T15:30:48Z</time>
      </trkpt>
      <trkpt lat="46.33611" lon="-0.51449">
        <ele>21.188961</ele>
        <time>2013-12-19T15:30:53Z</time>
      </trkpt>
      <trkpt lat="46.33615" lon="-0.51444">
        <ele>21.188961</ele>
        <time>2013-12-19T15:30:58Z</time>
      </trkpt>
      <trkpt lat="46.3362" lon="-0.51439">
        <ele>21.959055</ele>
        <time>2013-12-19T15:31:03Z</time>
      </trkpt>
      <trkpt lat="46.33623" lon="-0.51434">
        <ele>21.959055</ele>
        <time>2013-12-19T15:31:08Z</time>
      </trkpt>
      <trkpt lat="46.33626" lon="-0.51433">
        <ele>21.959055</ele>
        <time>2013-12-19T15:31:13Z</time>
      </trkpt>
      <trkpt lat="46.33631" lon="-0.51426">
        <ele>22.755932</ele>
        <time>2013-12-19T15:31:18Z</time>
      </trkpt>
      <trkpt lat="46.33634" lon="-0.51422">
        <ele>22.755932</ele>
        <time>2013-12-19T15:31:23Z</time>
      </trkpt>
      <trkpt lat="46.33637" lon="-0.51416">
        <ele>23.502842</ele>
        <time>2013-12-19T15:31:28Z</time>
      </trkpt>
      <trkpt lat="46.33637" lon="-0.51414">
        <ele>23.502842</ele>
        <time>2013-12-19T15:31:33Z</time>
      </trkpt>
      <trkpt lat="46.33642" lon="-0.51413">
        <ele>23.502842</ele>
        <time>2013-12-19T15:31:38Z</time>
      </trkpt>
      <trkpt lat="46.33643" lon="-0.51411">
        <ele>23.502842</ele>
        <time>2013-12-19T15:31:43Z</time>
      </trkpt>
      <trkpt lat="46.33644" lon="-0.51405">
        <ele>24.229744</ele>
        <time>2013-12-19T15:31:48Z</time>
      </trkpt>
      <trkpt lat="46.33647" lon="-0.514">
        <ele>24.229744</ele>
        <time>2013-12-19T15:31:53Z</time>
      </trkpt>
      <trkpt lat="46.33649" lon="-0.51393">
        <ele>25.050978</ele>
        <time>2013-12-19T15:31:58Z</time>
      </trkpt>
      <trkpt lat="46.33651" lon="-0.51387">
        <ele>25.050978</ele>
        <time>2013-12-19T15:32:03Z</time>
      </trkpt>
      <trkpt lat="46.33652" lon="-0.51381">
        <ele>25.438192</ele>
        <time>2013-12-19T15:32:08Z</time>
      </trkpt>
      <trkpt lat="46.33656" lon="-0.51373">
        <ele>25.438192</ele>
        <time>2013-12-19T15:32:13Z</time>
      </trkpt>
      <trkpt lat="46.33658" lon="-0.51367">
        <ele>26.113667</ele>
        <time>2013-12-19T15:32:18Z</time>
      </trkpt>
      <trkpt lat="46.33661" lon="-0.5136">
        <ele>26.113667</ele>
        <time>2013-12-19T15:32:23Z</time>
      </trkpt>
      <trkpt lat="46.33663" lon="-0.51352">
        <ele>26.59298</ele>
        <time>2013-12-19T15:32:28Z</time>
      </trkpt>
      <trkpt lat="46.33666" lon="-0.51346">
        <ele>26.59298</ele>
        <time>2013-12-19T15:32:33Z</time>
      </trkpt>
      <trkpt lat="46.33669" lon="-0.5134">
        <ele>26.961132</ele>
        <time>2013-12-19T15:32:38Z</time>
      </trkpt>
      <trkpt lat="46.33672" lon="-0.51332">
        <ele>26.961132</ele>
        <time>2013-12-19T15:32:43Z</time>
      </trkpt>
      <trkpt lat="46.33673" lon="-0.51325">
        <ele>27.18196</ele>
        <time>2013-12-19T15:32:48Z</time>
      </trkpt>
      <trkpt lat="46.33678" lon="-0.5132">
        <ele>27.18196</ele>
        <time>2013-12-19T15:32:53Z</time>
      </trkpt>
      <trkpt lat="46.33682" lon="-0.51313">
        <ele>27.683588</ele>
        <time>2013-12-19T15:32:58Z</time>
      </trkpt>
      <trkpt lat="46.33685" lon="-0.51306">
        <ele>27.683588</ele>
        <time>2013-12-19T15:33:03Z</time>
      </trkpt>
      <trkpt lat="46.33688" lon="-0.513">
        <ele>27.91084</ele>
        <time>2013-12-19T15:33:08Z</time>
      </trkpt>
      <trkpt lat="46.33692" lon="-0.51291">
        <ele>27.91084</ele>
        <time>2013-12-19T15:33:13Z</time>
      </trkpt>
      <trkpt lat="46.33695" lon="-0.51288">
        <ele>28.76243</ele>
        <time>2013-12-19T15:33:18Z</time>
      </trkpt>
      <trkpt lat="46.33696" lon="-0.51283">
        <ele>28.76243</ele>
        <time>2013-12-19T15:33:23Z</time>
      </trkpt>
      <trkpt lat="46.33699" lon="-0.51277">
        <ele>28.76243</ele>
        <time>2013-12-19T15:33:28Z</time>
      </trkpt>
      <trkpt lat="46.33701" lon="-0.51273">
        <ele>30.17588</ele>
        <time>2013-12-19T15:33:33Z</time>
      </trkpt>
      <trkpt lat="46.33702" lon="-0.51267">
        <ele>30.17588</ele>
        <time>2013-12-19T15:33:38Z</time>
      </trkpt>
      <trkpt lat="46.33704" lon="-0.51259">
        <ele>31.702686</ele>
        <time>2013-12-19T15:33:43Z</time>
      </trkpt>
      <trkpt lat="46.33704" lon="-0.51253">
        <ele>31.702686</ele>
        <time>2013-12-19T15:33:48Z</time>
      </trkpt>
      <trkpt lat="46.33707" lon="-0.51247">
        <ele>32.667637</ele>
        <time>2013-12-19T15:33:53Z</time>
      </trkpt>
      <trkpt lat="46.33709" lon="-0.51242">
        <ele>32.667637</ele>
        <time>2013-12-19T15:33:58Z</time>
      </trkpt>
      <trkpt lat="46.33711" lon="-0.51236">
        <ele>32.667637</ele>
        <time>2013-12-19T15:34:03Z</time>
      </trkpt>
      <trkpt lat="46.33713" lon="-0.51229">
        <ele>33.931118</ele>
        <time>2013-12-19T15:34:08Z</time>
      </trkpt>
      <trkpt lat="46.33715" lon="-0.51222">
        <ele>33.931118</ele>
        <time>2013-12-19T15:34:13Z</time>
      </trkpt>
      <trkpt lat="46.33715" lon="-0.51215">
        <ele>34.92049</ele>
        <time>2013-12-19T15:34:18Z</time>
      </trkpt>
      <trkpt lat="46.33716" lon="-0.51209">
        <ele>34.92049</ele>
        <time>2013-12-19T15:34:23Z</time>
      </trkpt>
      <trkpt lat="46.33715" lon="-0.51203">
        <ele>34.92049</ele>
        <time>2013-12-19T15:34:28Z</time>
      </trkpt>
      <trkpt lat="46.33715" lon="-0.51197">
        <ele>35.567177</ele>
        <time>2013-12-19T15:34:33Z</time>
      </trkpt>
      <trkpt lat="46.33719" lon="-0.51192">
        <ele>35.567177</ele>
        <time>2013-12-19T15:34:38Z</time>
      </trkpt>
      <trkpt lat="46.33722" lon="-0.51187">
        <ele>36.06808</ele>
        <time>2013-12-19T15:34:43Z</time>
      </trkpt>
      <trkpt lat="46.33724" lon="-0.51181">
        <ele>36.06808</ele>
        <time>2013-12-19T15:34:48Z</time>
      </trkpt>
      <trkpt lat="46.33726" lon="-0.51173">
        <ele>36.447605</ele>
        <time>2013-12-19T15:34:53Z</time>
      </trkpt>
      <trkpt lat="46.33727" lon="-0.51166">
        <ele>36.447605</ele>
        <time>2013-12-19T15:34:58Z</time>
      </trkpt>
      <trkpt lat="46.33729" lon="-0.51159">
        <ele>36.59907</ele>
        <time>2013-12-19T15:35:03Z</time>
      </trkpt>
      <trkpt lat="46.33733" lon="-0.51153">
        <ele>36.59907</ele>
        <time>2013-12-19T15:35:08Z</time>
      </trkpt>
      <trkpt lat="46.33735" lon="-0.51147">
        <ele>36.813435</ele>
        <time>2013-12-19T15:35:13Z</time>
      </trkpt>
      <trkpt lat="46.33738" lon="-0.51141">
        <ele>36.813435</ele>
        <time>2013-12-19T15:35:18Z</time>
      </trkpt>
      <trkpt lat="46.33739" lon="-0.51134">
        <ele>36.62521</ele>
        <time>2013-12-19T15:35:23Z</time>
      </trkpt>
      <trkpt lat="46.3374" lon="-0.51126">
        <ele>36.62521</ele>
        <time>2013-12-19T15:35:28Z</time>
      </trkpt>
      <trkpt lat="46.33744" lon="-0.51121">
        <ele>36.49777</ele>
        <time>2013-12-19T15:35:33Z</time>
      </trkpt>
      <trkpt lat="46.33747" lon="-0.51114">
        <ele>36.49777</ele>
        <time>2013-12-19T15:35:38Z</time>
      </trkpt>
      <trkpt lat="46.33749" lon="-0.51108">
        <ele>36.096535</ele>
        <time>2013-12-19T15:35:43Z</time>
      </trkpt>
      <trkpt lat="46.3375" lon="-0.51102">
        <ele>36.096535</ele>
        <time>2013-12-19T15:35:48Z</time>
      </trkpt>
      <trkpt lat="46.33752" lon="-0.51095">
        <ele>35.61671</ele>
        <time>2013-12-19T15:35:53Z</time>
      </trkpt>
      <trkpt lat="46.33753" lon="-0.51089">
        <ele>35.61671</ele>
        <time>2013-12-19T15:35:58Z</time>
      </trkpt>
      <trkpt lat="46.33756" lon="-0.51082">
        <ele>34.70619</ele>
        <time>2013-12-19T15:36:03Z</time>
      </trkpt>
      <trkpt lat="46.33759" lon="-0.51076">
        <ele>34.70619</ele>
        <time>2013-12-19T15:36:08Z</time>
      </trkpt>
      <trkpt lat="46.3376" lon="-0.5107">
        <ele>33.515526</ele>
        <time>2013-12-19T15:36:13Z</time>
      </trkpt>
      <trkpt lat="46.33763" lon="-0.51062">
        <ele>33.515526</ele>
        <time>2013-12-19T15:36:18Z</time>
      </trkpt>
      <trkpt lat="46.33766" lon="-0.51055">
        <ele>32.22824</ele>
        <time>2013-12-19T15:36:23Z</time>
      </trkpt>
      <trkpt lat="46.33768" lon="-0.51049">
        <ele>32.22824</ele>
        <time>2013-12-19T15:36:28Z</time>
      </trkpt>
      <trkpt lat="46.33771" lon="-0.51041">
        <ele>31.057877</ele>
        <time>2013-12-19T15:36:33Z</time>
      </trkpt>
      <trkpt lat="46.33772" lon="-0.51036">
        <ele>31.057877</ele>
        <time>2013-12-19T15:36:38Z</time>
      </trkpt>
      <trkpt lat="46.33774" lon="-0.51029">
        <ele>29.769606</ele>
        <time>2013-12-19T15:36:43Z</time>
      </trkpt>
      <trkpt lat="46.33776" lon="-0.51022">
        <ele>29.769606</ele>
        <time>2013-12-19T15:36:48Z</time>
      </trkpt>
      <trkpt lat="46.33778" lon="-0.51016">
        <ele>28.506428</ele>
        <time>2013-12-19T15:36:53Z</time>
      </trkpt>
      <trkpt lat="46.33779" lon="-0.5101">
        <ele>28.506428</ele>
        <time>2013-12-19T15:36:58Z</time>
      </trkpt>
      <trkpt lat="46.33783" lon="-0.51004">
        <ele>27.386314</ele>
        <time>2013-12-19T15:37:03Z</time>
      </trkpt>
      <trkpt lat="46.33788" lon="-0.50997">
        <ele>27.386314</ele>
        <time>2013-12-19T15:37:08Z</time>
      </trkpt>
      <trkpt lat="46.33788" lon="-0.50992">
        <ele>26.085783</ele>
        <time>2013-12-19T15:37:13Z</time>
      </trkpt>
      <trkpt lat="46.33792" lon="-0.50986">
        <ele>26.085783</ele>
        <time>2013-12-19T15:37:18Z</time>
      </trkpt>
      <trkpt lat="46.33798" lon="-0.50979">
        <ele>25.026117</ele>
        <time>2013-12-19T15:37:23Z</time>
      </trkpt>
      <trkpt lat="46.33802" lon="-0.50973">
        <ele>25.026117</ele>
        <time>2013-12-19T15:37:28Z</time>
      </trkpt>
      <trkpt lat="46.33805" lon="-0.50966">
        <ele>24.265453</ele>
        <time>2013-12-19T15:37:33Z</time>
      </trkpt>
      <trkpt lat="46.33806" lon="-0.5096">
        <ele>24.265453</ele>
        <time>2013-12-19T15:37:38Z</time>
      </trkpt>
      <trkpt lat="46.33806" lon="-0.50954">
        <ele>24.265453</ele>
        <time>2013-12-19T15:37:43Z</time>
      </trkpt>
      <trkpt lat="46.33809" lon="-0.50948">
        <ele>23.525284</ele>
        <time>2013-12-19T15:37:48Z</time>
      </trkpt>
      <trkpt lat="46.33811" lon="-0.50941">
        <ele>23.525284</ele>
        <time>2013-12-19T15:37:53Z</time>
      </trkpt>
      <trkpt lat="46.33813" lon="-0.50936">
        <ele>22.590662</ele>
        <time>2013-12-19T15:37:58Z</time>
      </trkpt>
      <trkpt lat="46.33814" lon="-0.50929">
        <ele>22.590662</ele>
        <time>2013-12-19T15:38:03Z</time>
      </trkpt>
      <trkpt lat="46.33816" lon="-0.50924">
        <ele>22.590662</ele>
        <time>2013-12-19T15:38:08Z</time>
      </trkpt>
      <trkpt lat="46.33815" lon="-0.50923">
        <ele>21.608759</ele>
        <time>2013-12-19T15:38:13Z</time>
      </trkpt>
      <trkpt lat="46.33815" lon="-0.50919">
        <ele>21.608759</ele>
        <time>2013-12-19T15:38:18Z</time>
      </trkpt>
      <trkpt lat="46.33819" lon="-0.50916">
        <ele>21.608759</ele>
        <time>2013-12-19T15:38:23Z</time>
      </trkpt>
      <trkpt lat="46.33822" lon="-0.50912">
        <ele>20.398935</ele>
        <time>2013-12-19T15:38:28Z</time>
      </trkpt>
      <trkpt lat="46.33827" lon="-0.5091">
        <ele>20.398935</ele>
        <time>2013-12-19T15:38:33Z</time>
      </trkpt>
      <trkpt lat="46.33831" lon="-0.5091">
        <ele>20.398935</ele>
        <time>2013-12-19T15:38:38Z</time>
      </trkpt>
      <trkpt lat="46.33835" lon="-0.5091">
        <ele>19.673452</ele>
        <time>2013-12-19T15:38:43Z</time>
      </trkpt>
      <trkpt lat="46.33841" lon="-0.5091">
        <ele>19.673452</ele>
        <time>2013-12-19T15:38:48Z</time>
      </trkpt>
      <trkpt lat="46.33845" lon="-0.5091">
        <ele>19.298187</ele>
        <time>2013-12-19T15:38:53Z</time>
      </trkpt>
      <trkpt lat="46.33849" lon="-0.50909">
        <ele>19.298187</ele>
        <time>2013-12-19T15:38:58Z</time>
      </trkpt>
      <trkpt lat="46.33856" lon="-0.5091">
        <ele>19.00369</ele>
        <time>2013-12-19T15:39:03Z</time>
      </trkpt>
      <trkpt lat="46.3386" lon="-0.50911">
        <ele>19.00369</ele>
        <time>2013-12-19T15:39:08Z</time>
      </trkpt>
      <trkpt lat="46.33865" lon="-0.50912">
        <ele>19.00369</ele>
        <time>2013-12-19T15:39:13Z</time>
      </trkpt>
      <trkpt lat="46.33869" lon="-0.50913">
        <ele>18.72733</ele>
        <time>2013-12-19T15:39:18Z</time>
      </trkpt>
      <trkpt lat="46.33873" lon="-0.50913">
        <ele>18.72733</ele>
        <time>2013-12-19T15:39:23Z</time>
      </trkpt>
      <trkpt lat="46.33878" lon="-0.50912">
        <ele>18.511814</ele>
        <time>2013-12-19T15:39:28Z</time>
      </trkpt>
      <trkpt lat="46.33883" lon="-0.50913">
        <ele>18.511814</ele>
        <time>2013-12-19T15:39:33Z</time>
      </trkpt>
      <trkpt lat="46.3389" lon="-0.50914">
        <ele>18.526169</ele>
        <time>2013-12-19T15:39:38Z</time>
      </trkpt>
      <trkpt lat="46.33894" lon="-0.50914">
        <ele>18.526169</ele>
        <time>2013-12-19T15:39:43Z</time>
      </trkpt>
      <trkpt lat="46.339" lon="-0.50915">
        <ele>18.42189</ele>
        <time>2013-12-19T15:39:48Z</time>
      </trkpt>
      <trkpt lat="46.33905" lon="-0.50917">
        <ele>18.42189</ele>
        <time>2013-12-19T15:39:53Z</time>
      </trkpt>
      <trkpt lat="46.33911" lon="-0.50917">
        <ele>18.510426</ele>
        <time>2013-12-19T15:39:58Z</time>
      </trkpt>
      <trkpt lat="46.33915" lon="-0.50917">
        <ele>18.510426</ele>
        <time>2013-12-19T15:40:03Z</time>
      </trkpt>
      <trkpt lat="46.3392" lon="-0.50918">
        <ele>18.690638</ele>
        <time>2013-12-19T15:40:08Z</time>
      </trkpt>
      <trkpt lat="46.33926" lon="-0.50921">
        <ele>18.690638</ele>
        <time>2013-12-19T15:40:13Z</time>
      </trkpt>
      <trkpt lat="46.33932" lon="-0.50922">
        <ele>18.82527</ele>
        <time>2013-12-19T15:40:18Z</time>
      </trkpt>
      <trkpt lat="46.33937" lon="-0.50923">
        <ele>18.82527</ele>
        <time>2013-12-19T15:40:23Z</time>
      </trkpt>
      <trkpt lat="46.33943" lon="-0.50925">
        <ele>18.599878</ele>
        <time>2013-12-19T15:40:28Z</time>
      </trkpt>
      <trkpt lat="46.33947" lon="-0.50927">
        <ele>18.599878</ele>
        <time>2013-12-19T15:40:33Z</time>
      </trkpt>
      <trkpt lat="46.33951" lon="-0.50928">
        <ele>18.599878</ele>
        <time>2013-12-19T15:40:38Z</time>
      </trkpt>
      <trkpt lat="46.33955" lon="-0.50929">
        <ele>18.401403</ele>
        <time>2013-12-19T15:40:43Z</time>
      </trkpt>
      <trkpt lat="46.33961" lon="-0.5093">
        <ele>18.401403</ele>
        <time>2013-12-19T15:40:48Z</time>
      </trkpt>
      <trkpt lat="46.33966" lon="-0.50936">
        <ele>18.184729</ele>
        <time>2013-12-19T15:40:53Z</time>
      </trkpt>
      <trkpt lat="46.3397" lon="-0.50939">
        <ele>18.184729</ele>
        <time>2013-12-19T15:40:58Z</time>
      </trkpt>
      <trkpt lat="46.33975" lon="-0.50944">
        <ele>18.09541</ele>
        <time>2013-12-19T15:41:03Z</time>
      </trkpt>
      <trkpt lat="46.3398" lon="-0.50948">
        <ele>18.09541</ele>
        <time>2013-12-19T15:41:08Z</time>
      </trkpt>
      <trkpt lat="46.33983" lon="-0.50951">
        <ele>18.08057</ele>
        <time>2013-12-19T15:41:13Z</time>
      </trkpt>
      <trkpt lat="46.33989" lon="-0.50951">
        <ele>18.08057</ele>
        <time>2013-12-19T15:41:18Z</time>
      </trkpt>
      <trkpt lat="46.33992" lon="-0.50952">
        <ele>17.918043</ele>
        <time>2013-12-19T15:41:23Z</time>
      </trkpt>
      <trkpt lat="46.33997" lon="-0.50955">
        <ele>17.918043</ele>
        <time>2013-12-19T15:41:28Z</time>
      </trkpt>
      <trkpt lat="46.34002" lon="-0.50959">
        <ele>17.762644</ele>
        <time>2013-12-19T15:41:33Z</time>
      </trkpt>
      <trkpt lat="46.34006" lon="-0.50964">
        <ele>17.762644</ele>
        <time>2013-12-19T15:41:38Z</time>
      </trkpt>
      <trkpt lat="46.34011" lon="-0.50967">
        <ele>17.743355</ele>
        <time>2013-12-19T15:41:43Z</time>
      </trkpt>
      <trkpt lat="46.34015" lon="-0.50972">
        <ele>17.743355</ele>
        <time>2013-12-19T15:41:48Z</time>
      </trkpt>
      <trkpt lat="46.34019" lon="-0.50972">
        <ele>17.743355</ele>
        <time>2013-12-19T15:41:53Z</time>
      </trkpt>
      <trkpt lat="46.34025" lon="-0.50974">
        <ele>17.532537</ele>
        <time>2013-12-19T15:41:58Z</time>
      </trkpt>
      <trkpt lat="46.34028" lon="-0.50976">
        <ele>17.532537</ele>
        <time>2013-12-19T15:42:03Z</time>
      </trkpt>
      <trkpt lat="46.34034" lon="-0.50978">
        <ele>17.389166</ele>
        <time>2013-12-19T15:42:08Z</time>
      </trkpt>
      <trkpt lat="46.3404" lon="-0.5098">
        <ele>17.389166</ele>
        <time>2013-12-19T15:42:13Z</time>
      </trkpt>
      <trkpt lat="46.34044" lon="-0.50982">
        <ele>17.250353</ele>
        <time>2013-12-19T15:42:18Z</time>
      </trkpt>
      <trkpt lat="46.3405" lon="-0.50985">
        <ele>17.250353</ele>
        <time>2013-12-19T15:42:23Z</time>
      </trkpt>
      <trkpt lat="46.34054" lon="-0.50989">
        <ele>16.841635</ele>
        <time>2013-12-19T15:42:28Z</time>
      </trkpt>
      <trkpt lat="46.34058" lon="-0.50994">
        <ele>16.841635</ele>
        <time>2013-12-19T15:42:33Z</time>
      </trkpt>
      <trkpt lat="46.34062" lon="-0.51">
        <ele>16.644415</ele>
        <time>2013-12-19T15:42:38Z</time>
      </trkpt>
      <trkpt lat="46.34067" lon="-0.51004">
        <ele>16.644415</ele>
        <time>2013-12-19T15:42:43Z</time>
      </trkpt>
      <trkpt lat="46.34072" lon="-0.51005">
        <ele>16.686207</ele>
        <time>2013-12-19T15:42:48Z</time>
      </trkpt>
      <trkpt lat="46.34078" lon="-0.51009">
        <ele>16.686207</ele>
        <time>2013-12-19T15:42:53Z</time>
      </trkpt>
      <trkpt lat="46.34083" lon="-0.51012">
        <ele>16.93418</ele>
        <time>2013-12-19T15:42:58Z</time>
      </trkpt>
      <trkpt lat="46.34085" lon="-0.51017">
        <ele>16.93418</ele>
        <time>2013-12-19T15:43:03Z</time>
      </trkpt>
      <trkpt lat="46.3409" lon="-0.51023">
        <ele>17.314087</ele>
        <time>2013-12-19T15:43:08Z</time>
      </trkpt>
      <trkpt lat="46.34093" lon="-0.51028">
        <ele>17.314087</ele>
        <time>2013-12-19T15:43:13Z</time>
      </trkpt>
      <trkpt lat="46.34095" lon="-0.51032">
        <ele>17.314087</ele>
        <time>2013-12-19T15:43:18Z</time>
      </trkpt>
      <trkpt lat="46.34099" lon="-0.51041">
        <ele>17.540604</ele>
        <time>2013-12-19T15:43:23Z</time>
      </trkpt>
      <trkpt lat="46.34101" lon="-0.51049">
        <ele>17.540604</ele>
        <time>2013-12-19T15:43:28Z</time>
      </trkpt>
      <trkpt lat="46.34103" lon="-0.51054">
        <ele>17.998295</ele>
        <time>2013-12-19T15:43:33Z</time>
      </trkpt>
      <trkpt lat="46.34107" lon="-0.5106">
        <ele>17.998295</ele>
        <time>2013-12-19T15:43:38Z</time>
      </trkpt>
      <trkpt lat="46.34109" lon="-0.51067">
        <ele>18.55285</ele>
        <time>2013-12-19T15:43:43Z</time>
      </trkpt>
      <trkpt lat="46.34112" lon="-0.51072">
        <ele>18.55285</ele>
        <time>2013-12-19T15:43:48Z</time>
      </trkpt>
      <trkpt lat="46.34115" lon="-0.51079">
        <ele>19.26692</ele>
        <time>2013-12-19T15:43:53Z</time>
      </trkpt>
      <trkpt lat="46.34118" lon="-0.51083">
        <ele>19.26692</ele>
        <time>2013-12-19T15:43:58Z</time>
      </trkpt>
      <trkpt lat="46.34122" lon="-0.51084">
        <ele>19.26692</ele>
        <time>2013-12-19T15:44:03Z</time>
      </trkpt>
      <trkpt lat="46.34126" lon="-0.51091">
        <ele>19.535206</ele>
        <time>2013-12-19T15:44:08Z</time>
      </trkpt>
      <trkpt lat="46.34129" lon="-0.51095">
        <ele>19.535206</ele>
        <time>2013-12-19T15:44:13Z</time>
      </trkpt>
      <trkpt lat="46.34134" lon="-0.51101">
        <ele>19.878977</ele>
        <time>2013-12-19T15:44:18Z</time>
      </trkpt>
      <trkpt lat="46.34138" lon="-0.51108">
        <ele>19.878977</ele>
        <time>2013-12-19T15:44:23Z</time>
      </trkpt>
      <trkpt lat="46.34143" lon="-0.51109">
        <ele>20.492813</ele>
        <time>2013-12-19T15:44:28Z</time>
      </trkpt>
      <trkpt lat="46.34147" lon="-0.51109">
        <ele>20.492813</ele>
        <time>2013-12-19T15:44:33Z</time>
      </trkpt>
      <trkpt lat="46.34152" lon="-0.51111">
        <ele>21.008644</ele>
        <time>2013-12-19T15:44:38Z</time>
      </trkpt>
      <trkpt lat="46.34157" lon="-0.51113">
        <ele>21.008644</ele>
        <time>2013-12-19T15:44:43Z</time>
      </trkpt>
      <trkpt lat="46.34162" lon="-0.51117">
        <ele>21.330736</ele>
        <time>2013-12-19T15:44:48Z</time>
      </trkpt>
      <trkpt lat="46.34166" lon="-0.51121">
        <ele>21.330736</ele>
        <time>2013-12-19T15:44:53Z</time>
      </trkpt>
      <trkpt lat="46.34172" lon="-0.51122">
        <ele>21.875362</ele>
        <time>2013-12-19T15:44:58Z</time>
      </trkpt>
      <trkpt lat="46.34175" lon="-0.51123">
        <ele>21.875362</ele>
        <time>2013-12-19T15:45:03Z</time>
      </trkpt>
      <trkpt lat="46.34181" lon="-0.51124">
        <ele>22.508831</ele>
        <time>2013-12-19T15:45:08Z</time>
      </trkpt>
      <trkpt lat="46.34186" lon="-0.51128">
        <ele>22.508831</ele>
        <time>2013-12-19T15:45:13Z</time>
      </trkpt>
      <trkpt lat="46.34189" lon="-0.5113">
        <ele>22.508831</ele>
        <time>2013-12-19T15:45:18Z</time>
      </trkpt>
      <trkpt lat="46.34192" lon="-0.51133">
        <ele>23.006186</ele>
        <time>2013-12-19T15:45:23Z</time>
      </trkpt>
      <trkpt lat="46.34197" lon="-0.51136">
        <ele>23.006186</ele>
        <time>2013-12-19T15:45:28Z</time>
      </trkpt>
      <trkpt lat="46.34202" lon="-0.51139">
        <ele>23.735868</ele>
        <time>2013-12-19T15:45:33Z</time>
      </trkpt>
      <trkpt lat="46.34206" lon="-0.51142">
        <ele>23.735868</ele>
        <time>2013-12-19T15:45:38Z</time>
      </trkpt>
      <trkpt lat="46.3421" lon="-0.51143">
        <ele>23.735868</ele>
        <time>2013-12-19T15:45:43Z</time>
      </trkpt>
      <trkpt lat="46.34215" lon="-0.51146">
        <ele>24.3181</ele>
        <time>2013-12-19T15:45:48Z</time>
      </trkpt>
      <trkpt lat="46.34218" lon="-0.51148">
        <ele>24.3181</ele>
        <time>2013-12-19T15:45:53Z</time>
      </trkpt>
      <trkpt lat="46.34223" lon="-0.51151">
        <ele>24.3181</ele>
        <time>2013-12-19T15:45:58Z</time>
      </trkpt>
      <trkpt lat="46.34227" lon="-0.51153">
        <ele>25.049965</ele>
        <time>2013-12-19T15:46:03Z</time>
      </trkpt>
      <trkpt lat="46.34232" lon="-0.51157">
        <ele>25.049965</ele>
        <time>2013-12-19T15:46:08Z</time>
      </trkpt>
      <trkpt lat="46.34237" lon="-0.51159">
        <ele>25.903723</ele>
        <time>2013-12-19T15:46:13Z</time>
      </trkpt>
      <trkpt lat="46.34242" lon="-0.51162">
        <ele>25.903723</ele>
        <time>2013-12-19T15:46:18Z</time>
      </trkpt>
      <trkpt lat="46.34245" lon="-0.51164">
        <ele>25.903723</ele>
        <time>2013-12-19T15:46:23Z</time>
      </trkpt>
      <trkpt lat="46.34249" lon="-0.51167">
        <ele>26.536343</ele>
        <time>2013-12-19T15:46:28Z</time>
      </trkpt>
      <trkpt lat="46.3425" lon="-0.51167">
        <ele>26.536343</ele>
        <time>2013-12-19T15:46:33Z</time>
      </trkpt>
      <trkpt lat="46.34252" lon="-0.5117">
        <ele>26.536343</ele>
        <time>2013-12-19T15:46:38Z</time>
      </trkpt>
    </trkseg>
  </trk>
</gpx>